Time,TemperatureF,DewpointF,PressureIn,WindDirection,WindDirectionDegrees,WindSpeedMPH,WindSpeedGustMPH,Humidity,HourlyPrecipIn,Conditions,Clouds,dailyrainin,SoftwareType,DateUTC
2013-06-24 00:03:00,79.0,79.0,30.08,North,359,0.0,0.0,100,0.00,,SKC,0.00,VWS V14.01,2013-06-24 04:03:00,
2013-06-24 00:05:00,79.0,79.0,30.08,North,359,0.0,0.0,100,0.00,,SKC,0.00,VWS V14.01,2013-06-24 04:05:00,
2013-06-24 00:08:00,78.9,78.9,30.09,North,359,0.0,0.0,100,0.00,,SKC,0.00,VWS V14.01,2013-06-24 04:08:00,
2013-06-24 00:10:00,78.9,78.9,30.08,North,359,0.0,0.0,100,0.00,,SKC,0.00,VWS V14.01,2013-06-24 04:10:00,
2013-06-24 00:13:00,78.8,78.8,30.08,North,359,0.0,0.0,100,0.00,,SKC,0.00,VWS V14.01,2013-06-24 04:13:00,
2013-06-24 00:15:00,78.8,78.8,30.08,North,359,0.0,0.0,100,0.00,,SKC,0.00,VWS V14.01,2013-06-24 04:15:00,
2013-06-24 00:16:00,78.8,78.8,30.08,North,359,0.0,0.0,100,0.00,,SKC,0.00,VWS V14.01,2013-06-24 04:16:00,
2013-06-24 00:18:00,78.8,78.8,30.09,North,359,0.0,0.0,100,0.00,,SKC,0.00,VWS V14.01,2013-06-24 04:18:00,
2013-06-24 00:19:00,78.8,78.8,30.09,North,359,0.0,0.0,100,0.00,,SKC,0.00,VWS V14.01,2013-06-24 04:19:00,
2013-06-24 00:20:00,78.5,78.3,30.09,North,359,0.0,0.0,99,0.00,,SKC,0.00,VWS V14.01,2013-06-24 04:20:00,
2013-06-24 00:21:00,78.5,78.3,30.09,North,359,0.0,0.0,99,0.00,,SKC,0.00,VWS V14.01,2013-06-24 04:21:00,
2013-06-24 00:24:00,78.4,78.3,30.09,North,359,0.0,0.0,100,0.00,,SKC,0.00,VWS V14.01,2013-06-24 04:24:00,
2013-06-24 00:25:00,78.4,78.4,30.09,North,359,0.0,0.0,100,0.00,,SKC,0.00,VWS V14.01,2013-06-24 04:25:00,
2013-06-24 00:26:00,78.5,78.3,30.09,North,359,0.0,0.0,100,0.00,,SKC,0.00,VWS V14.01,2013-06-24 04:26:00,
2013-06-24 00:29:00,78.3,77.8,30.09,North,359,0.0,0.0,98,0.00,,SKC,0.00,VWS V14.01,2013-06-24 04:29:00,
2013-06-24 00:31:00,78.3,77.8,30.09,North,359,0.0,0.0,98,0.00,,SKC,0.00,VWS V14.01,2013-06-24 04:31:00,
2013-06-24 00:34:00,78.4,78.1,30.09,North,359,0.0,0.0,99,0.00,,SKC,0.00,VWS V14.01,2013-06-24 04:34:00,
2013-06-24 00:35:00,78.4,78.1,30.09,North,359,0.0,0.0,99,0.00,,SKC,0.00,VWS V14.01,2013-06-24 04:35:00,
2013-06-24 00:36:00,78.4,78.2,30.09,North,359,0.0,0.0,100,0.00,,SKC,0.00,VWS V14.01,2013-06-24 04:36:00,
2013-06-24 00:39:00,78.4,78.3,30.09,North,359,0.0,0.0,100,0.00,,SKC,0.00,VWS V14.01,2013-06-24 04:39:00,
2013-06-24 00:40:00,78.4,78.3,30.09,North,359,0.0,0.0,100,0.00,,SKC,0.00,VWS V14.01,2013-06-24 04:40:00,
2013-06-24 00:41:00,78.3,78.2,30.09,North,359,0.0,0.0,100,0.00,,SKC,0.00,VWS V14.01,2013-06-24 04:41:00,
2013-06-24 00:44:00,78.3,78.2,30.09,North,359,0.0,0.0,100,0.00,,SKC,0.00,VWS V14.01,2013-06-24 04:44:00,
2013-06-24 00:45:00,78.3,78.2,30.09,North,359,0.0,0.0,100,0.00,,SKC,0.00,VWS V14.01,2013-06-24 04:45:00,
2013-06-24 00:46:00,78.2,78.1,30.09,North,359,0.0,0.0,100,0.00,,SKC,0.00,VWS V14.01,2013-06-24 04:46:00,
2013-06-24 00:47:00,78.1,77.9,30.09,North,359,0.0,0.0,99,0.00,,SKC,0.00,VWS V14.01,2013-06-24 04:47:00,
2013-06-24 00:50:00,77.8,76.9,30.09,North,359,0.0,0.0,97,0.00,,SKC,0.00,VWS V14.01,2013-06-24 04:50:00,
2013-06-24 00:51:00,77.4,76.9,30.09,North,359,0.0,0.0,98,0.00,,SKC,0.00,VWS V14.01,2013-06-24 04:51:00,
2013-06-24 00:52:00,77.5,77.0,30.09,North,359,0.0,0.0,98,0.00,,SKC,0.00,VWS V14.01,2013-06-24 04:52:00,
2013-06-24 00:55:00,77.4,77.1,30.09,North,359,0.0,0.0,99,0.00,,SKC,0.00,VWS V14.01,2013-06-24 04:55:00,
2013-06-24 00:56:00,77.4,77.1,30.09,North,359,0.0,0.0,99,0.00,,SKC,0.00,VWS V14.01,2013-06-24 04:56:00,
2013-06-24 00:57:00,77.4,77.0,30.09,North,359,0.0,0.0,99,0.00,,SKC,0.00,VWS V14.01,2013-06-24 04:57:00,
2013-06-24 01:00:00,77.2,77.1,30.09,North,359,0.0,0.0,100,0.00,,SKC,0.00,VWS V14.01,2013-06-24 05:00:00,
2013-06-24 01:01:00,77.9,77.9,30.08,North,359,0.0,0.0,100,0.00,,SKC,0.00,VWS V14.01,2013-06-24 05:01:00,
2013-06-24 01:02:00,77.1,76.8,30.09,North,359,0.0,0.0,99,0.00,,SKC,0.00,VWS V14.01,2013-06-24 05:02:00,
2013-06-24 01:03:00,77.9,77.9,30.08,North,359,0.0,0.0,100,0.00,,SKC,0.00,VWS V14.01,2013-06-24 05:03:00,
2013-06-24 01:04:00,77.9,77.9,30.08,North,359,0.0,0.0,100,0.00,,SKC,0.00,VWS V14.01,2013-06-24 05:04:00,
2013-06-24 01:05:00,77.0,76.6,30.09,North,359,0.0,0.0,99,0.00,,SKC,0.00,VWS V14.01,2013-06-24 05:05:00,
2013-06-24 01:06:00,78.0,77.9,30.08,North,359,0.0,0.0,100,0.00,,SKC,0.00,VWS V14.01,2013-06-24 05:06:00,
2013-06-24 01:07:00,77.0,76.6,30.09,North,359,0.0,0.0,99,0.00,,SKC,0.00,VWS V14.01,2013-06-24 05:07:00,
2013-06-24 01:08:00,78.0,78.0,30.08,North,359,0.0,0.0,100,0.00,,SKC,0.00,VWS V14.01,2013-06-24 05:08:00,
2013-06-24 01:09:00,78.0,78.0,30.08,North,359,0.0,0.0,100,0.00,,SKC,0.00,VWS V14.01,2013-06-24 05:09:00,
2013-06-24 01:10:00,77.1,76.5,30.09,North,359,0.0,0.0,98,0.00,,SKC,0.00,VWS V14.01,2013-06-24 05:10:00,
2013-06-24 01:12:00,77.1,76.2,30.09,North,359,0.0,0.0,97,0.00,,SKC,0.00,VWS V14.01,2013-06-24 05:12:00,
2013-06-24 01:13:00,77.1,76.2,30.09,North,359,0.0,0.0,97,0.00,,SKC,0.00,VWS V14.01,2013-06-24 05:13:00,
2013-06-24 01:15:00,77.2,76.3,30.09,North,359,0.0,0.0,97,0.00,,SKC,0.00,VWS V14.01,2013-06-24 05:15:00,
2013-06-24 01:17:00,77.2,76.2,30.09,North,359,0.0,0.0,97,0.00,,SKC,0.00,VWS V14.01,2013-06-24 05:17:00,
2013-06-24 01:18:00,77.3,76.3,30.09,North,359,0.0,0.0,97,0.00,,SKC,0.00,VWS V14.01,2013-06-24 05:18:00,
2013-06-24 01:20:00,77.5,76.2,30.09,North,359,0.0,0.0,96,0.00,,SKC,0.00,VWS V14.01,2013-06-24 05:20:00,
2013-06-24 01:21:00,77.4,75.9,30.09,North,359,0.0,0.0,95,0.00,,SKC,0.00,VWS V14.01,2013-06-24 05:21:00,
2013-06-24 01:22:00,77.7,76.1,30.09,North,359,0.0,0.0,95,0.00,,SKC,0.00,VWS V14.01,2013-06-24 05:22:00,
2013-06-24 01:23:00,77.7,76.2,30.09,North,359,0.0,0.0,95,0.00,,SKC,0.00,VWS V14.01,2013-06-24 05:23:00,
2013-06-24 01:25:00,77.9,76.6,30.09,North,359,0.0,0.0,96,0.00,,SKC,0.00,VWS V14.01,2013-06-24 05:25:00,
2013-06-24 01:26:00,77.9,76.6,30.09,North,359,0.0,0.0,96,0.00,,SKC,0.00,VWS V14.01,2013-06-24 05:26:00,
2013-06-24 01:27:00,78.0,77.2,30.09,North,359,0.0,0.0,97,0.00,,SKC,0.00,VWS V14.01,2013-06-24 05:27:00,
2013-06-24 01:28:00,78.1,77.3,30.09,North,359,0.0,0.0,97,0.00,,SKC,0.00,VWS V14.01,2013-06-24 05:28:00,
2013-06-24 01:30:00,78.1,77.3,30.09,North,359,0.0,0.0,98,0.00,,SKC,0.00,VWS V14.01,2013-06-24 05:30:00,
2013-06-24 01:31:00,78.1,77.4,30.09,North,359,0.0,0.0,98,0.00,,SKC,0.00,VWS V14.01,2013-06-24 05:31:00,
2013-06-24 01:33:00,78.1,77.7,30.08,North,359,0.0,0.0,99,0.00,,SKC,0.00,VWS V14.01,2013-06-24 05:33:00,
2013-06-24 01:35:00,78.2,78.2,30.09,North,359,0.0,0.0,100,0.00,,SKC,0.00,VWS V14.01,2013-06-24 05:35:00,
2013-06-24 01:36:00,78.2,78.2,30.09,North,359,0.0,0.0,100,0.00,,SKC,0.00,VWS V14.01,2013-06-24 05:36:00,
2013-06-24 01:38:00,78.1,78.1,30.09,North,359,0.0,0.0,100,0.00,,SKC,0.00,VWS V14.01,2013-06-24 05:38:00,
2013-06-24 01:41:00,78.1,78.1,30.09,North,359,0.0,0.0,100,0.00,,SKC,0.00,VWS V14.01,2013-06-24 05:41:00,
2013-06-24 01:43:00,78.0,78.0,30.09,North,359,0.0,0.0,100,0.00,,SKC,0.00,VWS V14.01,2013-06-24 05:43:00,
2013-06-24 01:46:00,78.1,78.1,30.08,North,359,0.0,0.0,100,0.00,,SKC,0.00,VWS V14.01,2013-06-24 05:46:00,
2013-06-24 01:48:00,78.1,78.1,30.08,North,359,0.0,0.0,100,0.00,,SKC,0.00,VWS V14.01,2013-06-24 05:48:00,
2013-06-24 01:49:00,78.1,78.1,30.08,North,359,0.0,0.0,100,0.00,,SKC,0.00,VWS V14.01,2013-06-24 05:49:00,
2013-06-24 01:51:00,78.1,78.1,30.08,North,359,0.0,0.0,100,0.00,,SKC,0.00,VWS V14.01,2013-06-24 05:51:00,
2013-06-24 01:52:00,78.0,78.1,30.08,North,359,0.0,0.0,100,0.00,,SKC,0.00,VWS V14.01,2013-06-24 05:52:00,
2013-06-24 01:54:00,78.0,78.0,30.08,North,359,0.0,0.0,100,0.00,,SKC,0.00,VWS V14.01,2013-06-24 05:54:00,
2013-06-24 02:01:00,78.0,78.0,30.08,North,359,0.0,0.0,100,0.00,,SKC,0.00,VWS V14.01,2013-06-24 06:01:00,
2013-06-24 02:02:00,77.9,77.9,30.08,North,359,0.0,0.0,100,0.00,,SKC,0.00,VWS V14.01,2013-06-24 06:02:00,
2013-06-24 02:05:00,78.0,78.0,30.08,North,359,0.0,0.0,100,0.00,,SKC,0.00,VWS V14.01,2013-06-24 06:05:00,
2013-06-24 02:06:00,77.9,77.9,30.08,North,359,0.0,0.0,100,0.00,,SKC,0.00,VWS V14.01,2013-06-24 06:06:00,
2013-06-24 02:07:00,77.9,77.9,30.08,North,359,0.0,0.0,100,0.00,,SKC,0.00,VWS V14.01,2013-06-24 06:07:00,
2013-06-24 02:12:00,77.9,77.9,30.08,North,359,0.0,0.0,100,0.00,,SKC,0.00,VWS V14.01,2013-06-24 06:12:00,
2013-06-24 02:17:00,78.0,78.0,30.08,North,359,0.0,0.0,100,0.00,,SKC,0.00,VWS V14.01,2013-06-24 06:17:00,
2013-06-24 02:18:00,77.9,77.9,30.08,North,359,0.0,0.0,100,0.00,,SKC,0.00,VWS V14.01,2013-06-24 06:18:00,
2013-06-24 02:22:00,78.1,78.1,30.08,North,359,0.0,0.0,100,0.00,,SKC,0.00,VWS V14.01,2013-06-24 06:22:00,
2013-06-24 02:23:00,78.1,78.1,30.09,North,359,0.0,0.0,100,0.00,,SKC,0.00,VWS V14.01,2013-06-24 06:23:00,
2013-06-24 02:27:00,78.3,78.3,30.09,North,359,0.0,0.0,100,0.00,,SKC,0.00,VWS V14.01,2013-06-24 06:27:00,
2013-06-24 02:28:00,78.2,78.2,30.09,North,359,0.0,0.0,100,0.00,,SKC,0.00,VWS V14.01,2013-06-24 06:28:00,
2013-06-24 02:32:00,78.4,78.4,30.09,North,359,0.0,0.0,100,0.00,,SKC,0.00,VWS V14.01,2013-06-24 06:32:00,
2013-06-24 02:33:00,78.4,78.4,30.09,North,359,0.0,0.0,100,0.00,,SKC,0.00,VWS V14.01,2013-06-24 06:33:00,
2013-06-24 02:34:00,78.4,78.4,30.09,North,359,0.0,0.0,100,0.00,,SKC,0.00,VWS V14.01,2013-06-24 06:34:00,
2013-06-24 02:37:00,78.5,78.5,30.09,North,359,0.0,0.0,100,0.00,,SKC,0.00,VWS V14.01,2013-06-24 06:37:00,
2013-06-24 02:39:00,78.4,78.4,30.09,North,359,0.0,0.0,100,0.00,,SKC,0.00,VWS V14.01,2013-06-24 06:39:00,
2013-06-24 02:40:00,78.5,78.5,30.09,North,359,0.0,0.0,100,0.00,,SKC,0.00,VWS V14.01,2013-06-24 06:40:00,
2013-06-24 02:43:00,78.5,78.5,30.09,North,359,0.0,0.0,100,0.00,,SKC,0.00,VWS V14.01,2013-06-24 06:43:00,
2013-06-24 02:44:00,78.5,78.5,30.09,North,359,0.0,0.0,100,0.00,,SKC,0.00,VWS V14.01,2013-06-24 06:44:00,
2013-06-24 02:46:00,78.7,78.7,30.09,North,359,0.0,0.0,100,0.00,,SKC,0.00,VWS V14.01,2013-06-24 06:46:00,
2013-06-24 02:49:00,78.5,78.4,30.09,North,359,0.0,0.0,100,0.00,,SKC,0.00,VWS V14.01,2013-06-24 06:49:00,
2013-06-24 02:50:00,78.7,78.5,30.09,North,359,0.0,0.0,99,0.00,,SKC,0.00,VWS V14.01,2013-06-24 06:50:00,
2013-06-24 02:51:00,78.7,78.6,30.09,North,359,0.0,0.0,100,0.00,,SKC,0.00,VWS V14.01,2013-06-24 06:51:00,
2013-06-24 02:54:00,78.7,78.6,30.09,North,359,0.0,0.0,100,0.00,,SKC,0.00,VWS V14.01,2013-06-24 06:54:00,
2013-06-24 02:56:00,78.8,78.8,30.09,North,359,0.0,0.0,100,0.00,,SKC,0.00,VWS V14.01,2013-06-24 06:56:00,
2013-06-24 02:57:00,78.8,78.8,30.09,North,359,0.0,0.0,100,0.00,,SKC,0.00,VWS V14.01,2013-06-24 06:57:00,
2013-06-24 02:59:00,78.8,78.7,30.09,North,359,0.0,0.0,100,0.00,,SKC,0.00,VWS V14.01,2013-06-24 06:59:00,
2013-06-24 03:01:00,78.8,78.6,30.09,North,359,0.0,0.0,99,0.00,,SKC,0.00,VWS V14.01,2013-06-24 07:01:00,
2013-06-24 03:02:00,78.9,78.8,30.09,North,359,0.0,0.0,100,0.00,,SKC,0.00,VWS V14.01,2013-06-24 07:02:00,
2013-06-24 03:05:00,78.9,78.7,30.09,North,359,0.0,0.0,99,0.00,,SKC,0.00,VWS V14.01,2013-06-24 07:05:00,
2013-06-24 03:06:00,78.9,78.6,30.09,North,359,0.0,0.0,99,0.00,,SKC,0.00,VWS V14.01,2013-06-24 07:06:00,
2013-06-24 03:07:00,78.9,78.6,30.09,North,359,0.0,0.0,99,0.00,,SKC,0.00,VWS V14.01,2013-06-24 07:07:00,
2013-06-24 03:11:00,79.0,78.5,30.09,North,359,0.0,0.0,98,0.00,,SKC,0.00,VWS V14.01,2013-06-24 07:11:00,
2013-06-24 03:12:00,78.9,78.2,30.09,North,359,0.0,0.0,98,0.00,,SKC,0.00,VWS V14.01,2013-06-24 07:12:00,
2013-06-24 03:13:00,78.9,78.2,30.09,North,359,0.0,0.0,98,0.00,,SKC,0.00,VWS V14.01,2013-06-24 07:13:00,
2013-06-24 03:16:00,78.9,78.3,30.09,North,359,0.0,0.0,98,0.00,,SKC,0.00,VWS V14.01,2013-06-24 07:16:00,
2013-06-24 03:17:00,78.9,78.3,30.09,North,359,0.0,0.0,98,0.00,,SKC,0.00,VWS V14.01,2013-06-24 07:17:00,
2013-06-24 03:18:00,78.9,78.3,30.09,North,359,0.0,0.0,98,0.00,,SKC,0.00,VWS V14.01,2013-06-24 07:18:00,
2013-06-24 03:21:00,79.0,78.2,30.09,North,359,0.0,0.0,98,0.00,,SKC,0.00,VWS V14.01,2013-06-24 07:21:00,
2013-06-24 03:22:00,79.0,78.2,30.09,North,359,0.0,0.0,97,0.00,,SKC,0.00,VWS V14.01,2013-06-24 07:22:00,
2013-06-24 03:23:00,78.9,78.0,30.09,North,359,0.0,0.0,97,0.00,,SKC,0.00,VWS V14.01,2013-06-24 07:23:00,
2013-06-24 03:26:00,79.1,78.4,30.09,North,359,0.0,0.0,98,0.00,,SKC,0.00,VWS V14.01,2013-06-24 07:26:00,
2013-06-24 03:27:00,79.0,78.1,30.09,North,359,0.0,0.0,97,0.00,,SKC,0.00,VWS V14.01,2013-06-24 07:27:00,
2013-06-24 03:28:00,79.0,78.1,30.09,North,359,0.0,0.0,97,0.00,,SKC,0.00,VWS V14.01,2013-06-24 07:28:00,
2013-06-24 03:31:00,79.0,78.2,30.09,North,359,0.0,0.0,97,0.00,,SKC,0.00,VWS V14.01,2013-06-24 07:31:00,
2013-06-24 03:32:00,79.0,78.3,30.09,North,359,0.0,0.0,98,0.00,,SKC,0.00,VWS V14.01,2013-06-24 07:32:00,
2013-06-24 03:33:00,79.0,78.3,30.09,North,359,0.0,0.0,98,0.00,,SKC,0.00,VWS V14.01,2013-06-24 07:33:00,
2013-06-24 03:37:00,79.0,78.2,30.09,North,359,0.0,0.0,98,0.00,,SKC,0.00,VWS V14.01,2013-06-24 07:37:00,
2013-06-24 03:38:00,79.1,78.4,30.09,North,359,0.0,0.0,98,0.00,,SKC,0.00,VWS V14.01,2013-06-24 07:38:00,
2013-06-24 03:42:00,79.0,78.4,30.09,North,359,0.0,0.0,98,0.00,,SKC,0.00,VWS V14.01,2013-06-24 07:42:00,
2013-06-24 03:43:00,78.9,78.3,30.09,North,359,0.0,0.0,98,0.00,,SKC,0.00,VWS V14.01,2013-06-24 07:43:00,
2013-06-24 03:47:00,78.9,78.3,30.09,North,359,0.0,0.0,98,0.00,,SKC,0.00,VWS V14.01,2013-06-24 07:47:00,
2013-06-24 03:48:00,78.9,78.3,30.09,North,359,0.0,0.0,98,0.00,,SKC,0.00,VWS V14.01,2013-06-24 07:48:00,
2013-06-24 03:49:00,78.9,78.3,30.09,North,359,0.0,0.0,98,0.00,,SKC,0.00,VWS V14.01,2013-06-24 07:49:00,
2013-06-24 03:52:00,78.9,78.5,30.10,North,359,0.0,0.0,99,0.00,,SKC,0.00,VWS V14.01,2013-06-24 07:52:00,
2013-06-24 03:53:00,78.9,78.5,30.10,North,359,0.0,0.0,99,0.00,,SKC,0.00,VWS V14.01,2013-06-24 07:53:00,
2013-06-24 03:55:00,78.9,78.4,30.10,North,359,0.0,0.0,98,0.00,,SKC,0.00,VWS V14.01,2013-06-24 07:55:00,
2013-06-24 03:57:00,78.9,78.4,30.10,North,359,0.0,0.0,98,0.00,,SKC,0.00,VWS V14.01,2013-06-24 07:57:00,
2013-06-24 03:58:00,78.8,78.4,30.10,North,359,0.0,0.0,99,0.00,,SKC,0.00,VWS V14.01,2013-06-24 07:58:00,
2013-06-24 04:01:00,78.8,78.3,30.10,North,359,0.0,0.0,98,0.00,,SKC,0.00,VWS V14.01,2013-06-24 08:01:00,
2013-06-24 04:02:00,78.9,78.3,30.10,North,359,0.0,0.0,98,0.00,,SKC,0.00,VWS V14.01,2013-06-24 08:02:00,
2013-06-24 04:03:00,78.8,78.2,30.10,North,359,0.0,0.0,98,0.00,,SKC,0.00,VWS V14.01,2013-06-24 08:03:00,
2013-06-24 04:06:00,78.9,78.4,30.10,North,359,0.0,0.0,98,0.00,,SKC,0.00,VWS V14.01,2013-06-24 08:06:00,
2013-06-24 04:08:00,78.9,78.2,30.10,North,359,0.0,0.0,98,0.00,,SKC,0.00,VWS V14.01,2013-06-24 08:08:00,
2013-06-24 04:09:00,78.9,78.0,30.10,North,359,0.0,0.0,97,0.00,,SKC,0.00,VWS V14.01,2013-06-24 08:09:00,
2013-06-24 04:11:00,78.9,78.1,30.10,North,359,0.0,0.0,97,0.00,,SKC,0.00,VWS V14.01,2013-06-24 08:11:00,
2013-06-24 04:13:00,78.9,78.2,30.09,North,359,0.0,0.0,98,0.00,,SKC,0.00,VWS V14.01,2013-06-24 08:13:00,
2013-06-24 04:14:00,79.0,78.4,30.09,North,359,0.0,0.0,98,0.00,,SKC,0.00,VWS V14.01,2013-06-24 08:14:00,
2013-06-24 04:17:00,79.0,78.6,30.09,North,359,0.0,0.0,99,0.00,,SKC,0.00,VWS V14.01,2013-06-24 08:17:00,
2013-06-24 04:19:00,78.9,78.2,30.10,North,359,0.0,0.0,98,0.00,,SKC,0.00,VWS V14.01,2013-06-24 08:19:00,
2013-06-24 04:22:00,79.0,78.5,30.10,North,359,0.0,0.0,98,0.00,,SKC,0.00,VWS V14.01,2013-06-24 08:22:00,
2013-06-24 04:25:00,79.0,78.6,30.10,North,359,0.0,0.0,99,0.00,,SKC,0.00,VWS V14.01,2013-06-24 08:25:00,
2013-06-24 04:27:00,79.0,78.7,30.10,North,359,0.0,0.0,99,0.00,,SKC,0.00,VWS V14.01,2013-06-24 08:27:00,
2013-06-24 04:30:00,79.1,78.8,30.10,North,359,0.0,0.0,99,0.00,,SKC,0.00,VWS V14.01,2013-06-24 08:30:00,
2013-06-24 04:33:00,79.0,79.0,30.10,North,359,0.0,0.0,100,0.00,,SKC,0.00,VWS V14.01,2013-06-24 08:33:00,
2013-06-24 04:35:00,79.0,78.9,30.10,North,359,0.0,0.0,100,0.00,,SKC,0.00,VWS V14.01,2013-06-24 08:35:00,
2013-06-24 04:36:00,79.0,79.0,30.10,North,359,0.0,0.0,100,0.00,,SKC,0.00,VWS V14.01,2013-06-24 08:36:00,
2013-06-24 04:38:00,79.1,79.1,30.10,North,359,0.0,0.0,100,0.00,,SKC,0.00,VWS V14.01,2013-06-24 08:38:00,
2013-06-24 04:40:00,79.0,79.0,30.10,North,359,0.0,0.0,100,0.00,,SKC,0.00,VWS V14.01,2013-06-24 08:40:00,
2013-06-24 04:41:00,78.9,78.9,30.10,North,359,0.0,0.0,100,0.00,,SKC,0.00,VWS V14.01,2013-06-24 08:41:00,
2013-06-24 04:43:00,78.9,78.9,30.10,North,359,0.0,0.0,100,0.00,,SKC,0.00,VWS V14.01,2013-06-24 08:43:00,
2013-06-24 04:45:00,78.8,78.9,30.10,North,359,0.0,0.0,100,0.00,,SKC,0.00,VWS V14.01,2013-06-24 08:45:00,
2013-06-24 04:46:00,78.9,78.9,30.10,North,359,0.0,0.0,100,0.00,,SKC,0.00,VWS V14.01,2013-06-24 08:46:00,
2013-06-24 04:49:00,78.9,78.9,30.10,North,359,0.0,0.0,100,0.00,,SKC,0.00,VWS V14.01,2013-06-24 08:49:00,
2013-06-24 04:50:00,78.9,78.9,30.10,North,359,0.0,0.0,100,0.00,,SKC,0.00,VWS V14.01,2013-06-24 08:50:00,
2013-06-24 04:51:00,78.9,78.9,30.10,North,359,0.0,0.0,100,0.00,,SKC,0.00,VWS V14.01,2013-06-24 08:51:00,
2013-06-24 04:52:00,78.9,78.9,30.10,North,359,0.0,0.0,100,0.00,,SKC,0.00,VWS V14.01,2013-06-24 08:52:00,
2013-06-24 04:54:00,78.8,78.8,30.10,North,359,0.0,0.0,100,0.00,,SKC,0.00,VWS V14.01,2013-06-24 08:54:00,
2013-06-24 04:55:00,78.8,78.8,30.10,North,359,0.0,0.0,100,0.00,,SKC,0.00,VWS V14.01,2013-06-24 08:55:00,
2013-06-24 04:57:00,78.8,78.5,30.10,North,359,0.0,0.0,99,0.00,,SKC,0.00,VWS V14.01,2013-06-24 08:57:00,
2013-06-24 05:00:00,78.9,78.9,30.10,North,359,0.0,0.0,100,0.00,,SKC,0.00,VWS V14.01,2013-06-24 09:00:00,
2013-06-24 05:01:00,78.9,78.9,30.10,North,359,0.0,0.0,100,0.00,,SKC,0.00,VWS V14.01,2013-06-24 09:01:00,
2013-06-24 05:02:00,78.9,78.9,30.10,North,359,0.0,0.0,100,0.00,,SKC,0.00,VWS V14.01,2013-06-24 09:02:00,
2013-06-24 05:05:00,78.8,78.5,30.10,North,359,0.0,0.0,99,0.00,,SKC,0.00,VWS V14.01,2013-06-24 09:05:00,
2013-06-24 05:06:00,78.8,78.7,30.10,North,359,0.0,0.0,100,0.00,,SKC,0.00,VWS V14.01,2013-06-24 09:06:00,
2013-06-24 05:07:00,78.9,78.7,30.10,North,359,0.0,0.0,100,0.00,,SKC,0.00,VWS V14.01,2013-06-24 09:07:00,
2013-06-24 05:11:00,78.8,78.8,30.10,North,359,0.0,0.0,100,0.00,,SKC,0.00,VWS V14.01,2013-06-24 09:11:00,
2013-06-24 05:12:00,78.9,78.9,30.10,North,359,0.0,0.0,100,0.00,,SKC,0.00,VWS V14.01,2013-06-24 09:12:00,
2013-06-24 05:13:00,78.9,78.8,30.10,North,359,0.0,0.0,100,0.00,,SKC,0.00,VWS V14.01,2013-06-24 09:13:00,
2013-06-24 05:17:00,78.9,78.9,30.10,North,359,0.0,0.0,100,0.00,,SKC,0.00,VWS V14.01,2013-06-24 09:17:00,
2013-06-24 05:18:00,78.9,78.9,30.10,North,359,0.0,0.0,100,0.00,,SKC,0.00,VWS V14.01,2013-06-24 09:18:00,
2013-06-24 05:22:00,78.8,78.6,30.10,North,359,0.0,0.0,99,0.00,,SKC,0.00,VWS V14.01,2013-06-24 09:22:00,
2013-06-24 05:23:00,78.8,78.6,30.10,North,359,0.0,0.0,99,0.00,,SKC,0.00,VWS V14.01,2013-06-24 09:23:00,
2013-06-24 05:24:00,78.9,78.7,30.10,North,359,0.0,0.0,99,0.00,,SKC,0.00,VWS V14.01,2013-06-24 09:24:00,
2013-06-24 05:28:00,78.8,78.5,30.10,North,359,0.0,0.0,99,0.00,,SKC,0.00,VWS V14.01,2013-06-24 09:28:00,
2013-06-24 05:29:00,78.9,78.8,30.10,North,359,0.0,0.0,100,0.00,,SKC,0.00,VWS V14.01,2013-06-24 09:29:00,
2013-06-24 05:30:00,79.0,78.9,30.10,North,359,0.0,0.0,100,0.00,,SKC,0.00,VWS V14.01,2013-06-24 09:30:00,
2013-06-24 05:33:00,78.9,78.8,30.10,North,359,0.0,0.0,100,0.00,,SKC,0.00,VWS V14.01,2013-06-24 09:33:00,
2013-06-24 05:34:00,78.8,78.7,30.10,North,359,0.0,0.0,100,0.00,,SKC,0.00,VWS V14.01,2013-06-24 09:34:00,
2013-06-24 05:35:00,78.9,78.8,30.10,North,359,0.0,0.0,100,0.00,,SKC,0.00,VWS V14.01,2013-06-24 09:35:00,
2013-06-24 05:38:00,78.8,78.5,30.10,North,359,0.0,0.0,99,0.00,,SKC,0.00,VWS V14.01,2013-06-24 09:38:00,
2013-06-24 05:39:00,78.8,78.6,30.10,North,359,0.0,0.0,99,0.00,,SKC,0.00,VWS V14.01,2013-06-24 09:39:00,
2013-06-24 05:40:00,78.8,78.6,30.10,North,359,0.0,0.0,99,0.00,,SKC,0.00,VWS V14.01,2013-06-24 09:40:00,
2013-06-24 05:44:00,78.8,78.6,30.10,North,359,0.0,0.0,99,0.00,,SKC,0.00,VWS V14.01,2013-06-24 09:44:00,
2013-06-24 05:45:00,78.8,78.7,30.10,North,359,0.0,0.0,100,0.00,,SKC,0.00,VWS V14.01,2013-06-24 09:45:00,
2013-06-24 05:49:00,78.8,78.8,30.10,North,359,0.0,0.0,100,0.00,,SKC,0.00,VWS V14.01,2013-06-24 09:49:00,
2013-06-24 05:50:00,78.7,78.7,30.10,North,359,0.0,0.0,100,0.00,,SKC,0.00,VWS V14.01,2013-06-24 09:50:00,
2013-06-24 05:54:00,78.8,78.6,30.10,North,359,0.0,0.0,99,0.00,,SKC,0.00,VWS V14.01,2013-06-24 09:54:00,
2013-06-24 05:55:00,78.7,78.4,30.11,North,359,0.0,0.0,99,0.00,,SKC,0.00,VWS V14.01,2013-06-24 09:55:00,
2013-06-24 05:56:00,78.7,78.4,30.11,North,359,0.0,0.0,99,0.00,,SKC,0.00,VWS V14.01,2013-06-24 09:56:00,
2013-06-24 05:59:00,78.8,78.8,30.11,North,359,0.0,0.0,100,0.00,,SKC,0.00,VWS V14.01,2013-06-24 09:59:00,
2013-06-24 06:01:00,78.9,78.9,30.11,North,359,0.0,0.0,100,0.00,,SKC,0.00,VWS V14.01,2013-06-24 10:01:00,
2013-06-24 06:04:00,78.8,78.8,30.11,North,359,0.0,0.0,100,0.00,,SKC,0.00,VWS V14.01,2013-06-24 10:04:00,
2013-06-24 06:05:00,78.8,78.8,30.11,North,359,0.0,0.0,100,0.00,,SKC,0.00,VWS V14.01,2013-06-24 10:05:00,
2013-06-24 06:06:00,78.8,78.8,30.11,North,359,0.0,0.0,100,0.00,,SKC,0.00,VWS V14.01,2013-06-24 10:06:00,
2013-06-24 06:10:00,78.7,78.5,30.11,North,359,0.0,0.0,99,0.00,,SKC,0.00,VWS V14.01,2013-06-24 10:10:00,
2013-06-24 06:12:00,78.8,78.7,30.11,North,359,0.0,0.0,100,0.00,,SKC,0.00,VWS V14.01,2013-06-24 10:12:00,
2013-06-24 06:15:00,78.8,78.7,30.11,North,359,0.0,0.0,100,0.00,,SKC,0.00,VWS V14.01,2013-06-24 10:15:00,
2013-06-24 06:17:00,78.8,78.5,30.11,North,359,0.0,0.0,99,0.00,,SKC,0.00,VWS V14.01,2013-06-24 10:17:00,
2013-06-24 06:20:00,78.3,78.2,30.11,North,359,0.0,0.0,100,0.00,,SKC,0.00,VWS V14.01,2013-06-24 10:20:00,
2013-06-24 06:21:00,78.3,78.2,30.11,North,359,0.0,0.0,100,0.00,,SKC,0.00,VWS V14.01,2013-06-24 10:21:00,
2013-06-24 06:22:00,78.1,77.9,30.11,North,359,0.0,0.0,100,0.00,,SKC,0.00,VWS V14.01,2013-06-24 10:22:00,
2013-06-24 06:23:00,78.0,77.9,30.11,North,359,0.0,0.0,100,0.00,,SKC,0.00,VWS V14.01,2013-06-24 10:23:00,
2013-06-24 06:25:00,77.8,77.6,30.11,North,359,0.0,0.0,99,0.00,,SKC,0.00,VWS V14.01,2013-06-24 10:25:00,
2013-06-24 06:26:00,77.7,77.4,30.11,North,359,0.0,0.0,99,0.00,,SKC,0.00,VWS V14.01,2013-06-24 10:26:00,
2013-06-24 06:27:00,77.7,77.4,30.11,North,359,0.0,0.0,99,0.00,,SKC,0.00,VWS V14.01,2013-06-24 10:27:00,
2013-06-24 06:29:00,77.7,77.4,30.11,North,359,0.0,0.0,99,0.00,,SKC,0.00,VWS V14.01,2013-06-24 10:29:00,
2013-06-24 06:30:00,77.8,77.5,30.11,North,359,0.0,0.0,99,0.00,,SKC,0.00,VWS V14.01,2013-06-24 10:30:00,
2013-06-24 06:32:00,77.8,77.4,30.11,North,359,0.0,0.0,99,0.00,,SKC,0.00,VWS V14.01,2013-06-24 10:32:00,
2013-06-24 06:34:00,78.0,77.4,30.11,North,359,0.0,0.0,98,0.00,,SKC,0.00,VWS V14.01,2013-06-24 10:34:00,
2013-06-24 06:36:00,77.9,77.4,30.11,North,359,0.0,0.0,98,0.00,,SKC,0.00,VWS V14.01,2013-06-24 10:36:00,
2013-06-24 06:37:00,77.8,77.5,30.11,North,359,0.0,0.0,99,0.00,,SKC,0.00,VWS V14.01,2013-06-24 10:37:00,
2013-06-24 06:38:00,77.5,77.1,30.11,North,359,0.0,0.0,98,0.00,,SKC,0.00,VWS V14.01,2013-06-24 10:38:00,
2013-06-24 06:39:00,77.4,76.9,30.11,North,359,0.0,0.0,98,0.00,,SKC,0.00,VWS V14.01,2013-06-24 10:39:00,
2013-06-24 06:41:00,77.3,77.3,30.11,North,359,0.0,0.0,100,0.00,,SKC,0.00,VWS V14.01,2013-06-24 10:41:00,
2013-06-24 06:42:00,77.3,77.3,30.11,North,359,0.0,0.0,100,0.00,,SKC,0.00,VWS V14.01,2013-06-24 10:42:00,
2013-06-24 06:43:00,77.2,77.2,30.11,North,359,0.0,0.0,100,0.00,,SKC,0.00,VWS V14.01,2013-06-24 10:43:00,
2013-06-24 06:44:00,77.1,77.1,30.11,North,359,0.0,0.0,100,0.00,,SKC,0.00,VWS V14.01,2013-06-24 10:44:00,
2013-06-24 06:47:00,77.1,77.1,30.11,North,359,0.0,0.0,100,0.00,,SKC,0.00,VWS V14.01,2013-06-24 10:47:00,
2013-06-24 06:48:00,77.0,77.0,30.11,North,359,0.0,0.0,100,0.00,,SKC,0.00,VWS V14.01,2013-06-24 10:48:00,
2013-06-24 06:49:00,77.0,77.0,30.11,North,359,0.0,0.0,100,0.00,,SKC,0.00,VWS V14.01,2013-06-24 10:49:00,
2013-06-24 06:50:00,77.0,77.0,30.11,North,359,0.0,0.0,100,0.00,,SKC,0.00,VWS V14.01,2013-06-24 10:50:00,
2013-06-24 06:52:00,77.0,77.0,30.11,North,359,0.0,0.0,100,0.00,,SKC,0.00,VWS V14.01,2013-06-24 10:52:00,
2013-06-24 06:53:00,77.0,77.0,30.11,North,359,0.0,0.0,100,0.00,,SKC,0.00,VWS V14.01,2013-06-24 10:53:00,
2013-06-24 06:54:00,77.0,77.0,30.11,North,359,0.0,0.0,100,0.00,,SKC,0.00,VWS V14.01,2013-06-24 10:54:00,
2013-06-24 06:55:00,77.0,77.0,30.11,North,359,0.0,0.0,100,0.00,,SKC,0.00,VWS V14.01,2013-06-24 10:55:00,
2013-06-24 06:57:00,77.2,77.2,30.11,North,359,0.0,0.0,100,0.00,,SKC,0.00,VWS V14.01,2013-06-24 10:57:00,
2013-06-24 06:58:00,77.3,77.3,30.11,North,359,0.0,0.0,100,0.00,,SKC,0.00,VWS V14.01,2013-06-24 10:58:00,
2013-06-24 06:59:00,77.4,77.4,30.11,North,359,0.0,0.0,100,0.00,,SKC,0.00,VWS V14.01,2013-06-24 10:59:00,
2013-06-24 07:00:00,77.4,77.4,30.11,North,359,0.0,0.0,100,0.00,,SKC,0.00,VWS V14.01,2013-06-24 11:00:00,
2013-06-24 07:03:00,77.8,77.8,30.11,North,359,0.0,0.0,100,0.00,,SKC,0.00,VWS V14.01,2013-06-24 11:03:00,
2013-06-24 07:04:00,77.8,77.8,30.11,North,359,0.0,0.0,100,0.00,,SKC,0.00,VWS V14.01,2013-06-24 11:04:00,
2013-06-24 07:05:00,77.9,77.9,30.11,North,359,0.0,0.0,100,0.00,,SKC,0.00,VWS V14.01,2013-06-24 11:05:00,
2013-06-24 07:08:00,78.0,78.1,30.11,North,359,0.0,0.0,100,0.00,,SKC,0.00,VWS V14.01,2013-06-24 11:08:00,
2013-06-24 07:09:00,78.1,78.1,30.11,North,359,0.0,0.0,100,0.00,,SKC,0.00,VWS V14.01,2013-06-24 11:09:00,
2013-06-24 07:10:00,78.0,78.0,30.11,North,359,0.0,0.0,100,0.00,,SKC,0.00,VWS V14.01,2013-06-24 11:10:00,
2013-06-24 07:14:00,77.5,77.3,30.12,North,359,0.0,0.0,100,0.00,,SKC,0.00,VWS V14.01,2013-06-24 11:14:00,
2013-06-24 07:15:00,77.3,77.1,30.12,North,359,0.0,0.0,99,0.00,,SKC,0.00,VWS V14.01,2013-06-24 11:15:00,
2013-06-24 07:19:00,77.3,76.6,30.12,North,359,0.0,0.0,98,0.00,,SKC,0.00,VWS V14.01,2013-06-24 11:19:00,
2013-06-24 07:20:00,77.3,76.4,30.12,North,359,0.0,0.0,97,0.00,,SKC,0.00,VWS V14.01,2013-06-24 11:20:00,
2013-06-24 07:24:00,77.3,76.1,30.12,North,359,0.0,0.0,96,0.00,,SKC,0.00,VWS V14.01,2013-06-24 11:24:00,
2013-06-24 07:25:00,77.4,76.1,30.11,North,359,0.0,0.0,96,0.00,,SKC,0.00,VWS V14.01,2013-06-24 11:25:00,
2013-06-24 07:29:00,77.4,75.9,30.12,North,359,0.0,0.0,95,0.00,,SKC,0.00,VWS V14.01,2013-06-24 11:29:00,
2013-06-24 07:30:00,77.4,76.1,30.12,North,359,0.0,0.0,96,0.00,,SKC,0.00,VWS V14.01,2013-06-24 11:30:00,
2013-06-24 07:31:00,77.4,76.1,30.12,North,359,0.0,0.0,96,0.00,,SKC,0.00,VWS V14.01,2013-06-24 11:31:00,
2013-06-24 07:34:00,77.4,77.0,30.12,North,359,0.0,0.0,99,0.00,,SKC,0.00,VWS V14.01,2013-06-24 11:34:00,
2013-06-24 07:35:00,77.4,76.9,30.12,North,359,0.0,0.0,99,0.00,,SKC,0.00,VWS V14.01,2013-06-24 11:35:00,
2013-06-24 07:36:00,77.3,76.9,30.12,North,359,0.0,0.0,99,0.00,,SKC,0.00,VWS V14.01,2013-06-24 11:36:00,
2013-06-24 07:39:00,77.2,77.1,30.12,North,359,0.0,0.0,100,0.00,,SKC,0.00,VWS V14.01,2013-06-24 11:39:00,
2013-06-24 07:40:00,77.2,77.1,30.12,North,359,0.0,0.0,100,0.00,,SKC,0.00,VWS V14.01,2013-06-24 11:40:00,
2013-06-24 07:41:00,77.2,77.2,30.12,North,359,0.0,0.0,100,0.00,,SKC,0.00,VWS V14.01,2013-06-24 11:41:00,
2013-06-24 07:45:00,77.3,77.0,30.12,North,359,0.0,0.0,99,0.00,,SKC,0.00,VWS V14.01,2013-06-24 11:45:00,
2013-06-24 07:46:00,77.3,77.1,30.12,North,359,0.0,0.0,99,0.00,,SKC,0.00,VWS V14.01,2013-06-24 11:46:00,
2013-06-24 07:47:00,77.4,77.2,30.12,North,359,0.0,0.0,99,0.00,,SKC,0.00,VWS V14.01,2013-06-24 11:47:00,
2013-06-24 07:50:00,77.7,77.7,30.12,North,359,0.0,0.0,100,0.00,,SKC,0.00,VWS V14.01,2013-06-24 11:50:00,
2013-06-24 07:51:00,77.8,77.7,30.12,North,359,0.0,0.0,100,0.00,,SKC,0.00,VWS V14.01,2013-06-24 11:51:00,
2013-06-24 07:52:00,77.7,77.7,30.12,North,359,0.0,0.0,100,0.00,,SKC,0.00,VWS V14.01,2013-06-24 11:52:00,
2013-06-24 07:56:00,77.8,77.8,30.12,North,359,0.0,0.0,100,0.00,,SKC,0.00,VWS V14.01,2013-06-24 11:56:00,
2013-06-24 07:57:00,77.9,77.9,30.13,North,359,0.0,0.0,100,0.00,,SKC,0.00,VWS V14.01,2013-06-24 11:57:00,
2013-06-24 08:01:00,77.9,77.8,30.12,North,359,0.0,0.0,100,0.00,,SKC,0.00,VWS V14.01,2013-06-24 12:01:00,
2013-06-24 08:02:00,77.9,77.9,30.12,North,359,0.0,0.0,100,0.00,,SKC,0.00,VWS V14.01,2013-06-24 12:02:00,
2013-06-24 08:03:00,77.9,77.9,30.12,North,359,0.0,0.0,100,0.00,,SKC,0.00,VWS V14.01,2013-06-24 12:03:00,
2013-06-24 08:06:00,78.0,78.0,30.13,North,359,0.0,0.0,100,0.00,,SKC,0.00,VWS V14.01,2013-06-24 12:06:00,
2013-06-24 08:07:00,78.0,78.0,30.12,North,359,0.0,0.0,100,0.00,,SKC,0.00,VWS V14.01,2013-06-24 12:07:00,
2013-06-24 08:08:00,78.0,78.0,30.12,North,359,0.0,0.0,100,0.00,,SKC,0.00,VWS V14.01,2013-06-24 12:08:00,
2013-06-24 08:11:00,78.2,78.2,30.12,North,359,0.0,0.0,100,0.00,,SKC,0.00,VWS V14.01,2013-06-24 12:11:00,
2013-06-24 08:12:00,78.2,78.2,30.12,North,359,0.0,0.0,100,0.00,,SKC,0.00,VWS V14.01,2013-06-24 12:12:00,
2013-06-24 08:13:00,78.2,78.2,30.12,North,359,0.0,0.0,100,0.00,,SKC,0.00,VWS V14.01,2013-06-24 12:13:00,
2013-06-24 08:16:00,78.4,78.3,30.12,North,359,0.0,0.0,100,0.00,,SKC,0.00,VWS V14.01,2013-06-24 12:16:00,
2013-06-24 08:17:00,78.4,78.4,30.12,North,359,0.0,0.0,100,0.00,,SKC,0.00,VWS V14.01,2013-06-24 12:17:00,
2013-06-24 08:18:00,78.4,78.4,30.12,North,359,0.0,0.0,100,0.00,,SKC,0.00,VWS V14.01,2013-06-24 12:18:00,
2013-06-24 08:21:00,78.5,78.5,30.13,North,359,0.0,0.0,100,0.00,,SKC,0.00,VWS V14.01,2013-06-24 12:21:00,
2013-06-24 08:22:00,78.4,78.4,30.13,North,359,0.0,0.0,100,0.00,,SKC,0.00,VWS V14.01,2013-06-24 12:22:00,
2013-06-24 08:23:00,78.4,78.4,30.13,North,359,0.0,0.0,100,0.00,,SKC,0.00,VWS V14.01,2013-06-24 12:23:00,
2013-06-24 08:26:00,78.4,78.4,30.13,North,359,0.0,0.0,100,0.00,,SKC,0.00,VWS V14.01,2013-06-24 12:26:00,
2013-06-24 08:27:00,78.3,78.3,30.13,North,359,0.0,0.0,100,0.00,,SKC,0.00,VWS V14.01,2013-06-24 12:27:00,
2013-06-24 08:28:00,78.3,78.3,30.13,North,359,0.0,0.0,100,0.00,,SKC,0.00,VWS V14.01,2013-06-24 12:28:00,
2013-06-24 08:32:00,78.3,78.3,30.13,North,359,0.0,0.0,100,0.00,,SKC,0.00,VWS V14.01,2013-06-24 12:32:00,
2013-06-24 08:33:00,78.3,78.3,30.13,North,359,0.0,0.0,100,0.00,,SKC,0.00,VWS V14.01,2013-06-24 12:33:00,
2013-06-24 08:34:00,78.3,78.3,30.13,North,359,0.0,0.0,100,0.00,,SKC,0.00,VWS V14.01,2013-06-24 12:34:00,
2013-06-24 08:37:00,78.2,78.2,30.13,North,359,0.0,0.0,100,0.00,,SKC,0.00,VWS V14.01,2013-06-24 12:37:00,
2013-06-24 08:38:00,78.2,78.2,30.13,North,359,0.0,0.0,100,0.00,,SKC,0.00,VWS V14.01,2013-06-24 12:38:00,
2013-06-24 08:39:00,78.3,78.3,30.13,North,359,0.0,0.0,100,0.00,,SKC,0.00,VWS V14.01,2013-06-24 12:39:00,
2013-06-24 08:43:00,78.3,78.3,30.13,North,359,0.0,0.0,100,0.00,,SKC,0.00,VWS V14.01,2013-06-24 12:43:00,
2013-06-24 08:44:00,78.3,78.3,30.13,North,359,0.0,0.0,100,0.00,,SKC,0.00,VWS V14.01,2013-06-24 12:44:00,
2013-06-24 08:45:00,78.3,78.3,30.14,North,359,0.0,0.0,100,0.00,,SKC,0.00,VWS V14.01,2013-06-24 12:45:00,
2013-06-24 08:48:00,78.3,78.3,30.13,North,359,0.0,0.0,100,0.00,,SKC,0.00,VWS V14.01,2013-06-24 12:48:00,
2013-06-24 08:49:00,78.3,78.3,30.13,North,359,0.0,0.0,100,0.00,,SKC,0.00,VWS V14.01,2013-06-24 12:49:00,
2013-06-24 08:50:00,78.3,78.3,30.14,North,359,0.0,0.0,100,0.00,,SKC,0.00,VWS V14.01,2013-06-24 12:50:00,
2013-06-24 08:54:00,78.3,78.3,30.14,North,359,0.0,0.0,100,0.00,,SKC,0.00,VWS V14.01,2013-06-24 12:54:00,
2013-06-24 08:55:00,78.3,78.3,30.14,North,359,0.0,0.0,100,0.00,,SKC,0.00,VWS V14.01,2013-06-24 12:55:00,
2013-06-24 08:56:00,78.4,78.4,30.14,North,359,0.0,0.0,100,0.00,,SKC,0.00,VWS V14.01,2013-06-24 12:56:00,
2013-06-24 08:59:00,78.5,78.5,30.14,North,359,0.0,0.0,100,0.00,,SKC,0.00,VWS V14.01,2013-06-24 12:59:00,
2013-06-24 09:00:00,78.5,78.5,30.14,North,359,0.0,0.0,100,0.00,,SKC,0.00,VWS V14.01,2013-06-24 13:00:00,
2013-06-24 09:01:00,78.7,78.7,30.14,North,359,0.0,0.0,100,0.00,,SKC,0.00,VWS V14.01,2013-06-24 13:01:00,
2013-06-24 09:04:00,78.7,78.6,30.14,North,359,0.0,0.0,100,0.00,,SKC,0.00,VWS V14.01,2013-06-24 13:04:00,
2013-06-24 09:05:00,78.8,78.7,30.14,North,359,0.0,0.0,100,0.00,,SKC,0.00,VWS V14.01,2013-06-24 13:05:00,
2013-06-24 09:06:00,78.9,78.8,30.14,North,359,0.0,0.0,100,0.00,,SKC,0.00,VWS V14.01,2013-06-24 13:06:00,
2013-06-24 09:10:00,79.1,78.9,30.14,North,359,0.0,0.0,100,0.00,,SKC,0.00,VWS V14.01,2013-06-24 13:10:00,
2013-06-24 09:11:00,79.1,78.8,30.14,North,359,0.0,0.0,99,0.00,,SKC,0.00,VWS V14.01,2013-06-24 13:11:00,
2013-06-24 09:15:00,79.3,79.0,30.14,North,359,0.0,0.0,99,0.00,,SKC,0.00,VWS V14.01,2013-06-24 13:15:00,
2013-06-24 09:16:00,79.4,79.0,30.14,North,359,0.0,0.0,99,0.00,,SKC,0.00,VWS V14.01,2013-06-24 13:16:00,
2013-06-24 09:17:00,79.4,78.9,30.14,North,359,0.0,0.0,98,0.00,,SKC,0.00,VWS V14.01,2013-06-24 13:17:00,
2013-06-24 09:20:00,79.5,78.9,30.15,North,359,0.0,0.0,98,0.00,,SKC,0.00,VWS V14.01,2013-06-24 13:20:00,
2013-06-24 09:21:00,79.4,78.9,30.15,North,359,0.0,0.0,98,0.00,,SKC,0.00,VWS V14.01,2013-06-24 13:21:00,
2013-06-24 09:22:00,79.4,78.8,30.14,North,359,0.0,0.0,98,0.00,,SKC,0.00,VWS V14.01,2013-06-24 13:22:00,
2013-06-24 09:25:00,79.4,78.9,30.15,North,359,0.0,0.0,98,0.00,,SKC,0.00,VWS V14.01,2013-06-24 13:25:00,
2013-06-24 09:26:00,79.4,78.9,30.14,North,359,0.0,0.0,98,0.00,,SKC,0.00,VWS V14.01,2013-06-24 13:26:00,
2013-06-24 09:27:00,79.4,78.9,30.15,North,359,0.0,0.0,98,0.00,,SKC,0.00,VWS V14.01,2013-06-24 13:27:00,
2013-06-24 09:30:00,79.7,79.1,30.15,North,359,0.0,0.0,98,0.00,,SKC,0.00,VWS V14.01,2013-06-24 13:30:00,
2013-06-24 09:31:00,79.7,79.2,30.15,North,359,0.0,0.0,98,0.00,,SKC,0.00,VWS V14.01,2013-06-24 13:31:00,
2013-06-24 09:32:00,79.7,79.2,30.15,North,359,0.0,0.0,98,0.00,,SKC,0.00,VWS V14.01,2013-06-24 13:32:00,
2013-06-24 09:33:00,79.7,79.0,30.15,North,359,0.0,0.0,98,0.00,,SKC,0.00,VWS V14.01,2013-06-24 13:33:00,
2013-06-24 09:36:00,79.8,79.2,30.15,North,359,0.0,0.0,98,0.00,,SKC,0.00,VWS V14.01,2013-06-24 13:36:00,
2013-06-24 09:37:00,79.9,79.2,30.15,North,359,0.0,0.0,98,0.00,,SKC,0.00,VWS V14.01,2013-06-24 13:37:00,
2013-06-24 09:38:00,79.9,79.1,30.14,North,359,0.0,0.0,98,0.00,,SKC,0.00,VWS V14.01,2013-06-24 13:38:00,
2013-06-24 09:41:00,79.9,79.3,30.15,North,359,0.0,0.0,98,0.00,,SKC,0.00,VWS V14.01,2013-06-24 13:41:00,
2013-06-24 09:42:00,79.9,79.3,30.15,North,359,0.0,0.0,98,0.00,,SKC,0.00,VWS V14.01,2013-06-24 13:42:00,
2013-06-24 09:43:00,79.9,79.3,30.15,North,359,0.0,0.0,98,0.00,,SKC,0.00,VWS V14.01,2013-06-24 13:43:00,
2013-06-24 09:47:00,80.0,79.2,30.15,North,359,0.0,0.0,98,0.00,,SKC,0.00,VWS V14.01,2013-06-24 13:47:00,
2013-06-24 09:48:00,79.9,79.3,30.15,North,359,0.0,0.0,98,0.00,,SKC,0.00,VWS V14.01,2013-06-24 13:48:00,
2013-06-24 09:52:00,80.0,79.3,30.15,North,359,0.0,0.0,98,0.00,,SKC,0.00,VWS V14.01,2013-06-24 13:52:00,
2013-06-24 09:53:00,80.0,79.4,30.15,North,359,0.0,0.0,98,0.00,,SKC,0.00,VWS V14.01,2013-06-24 13:53:00,
2013-06-24 09:55:00,80.0,79.3,30.15,North,359,0.0,0.0,98,0.00,,SKC,0.00,VWS V14.01,2013-06-24 13:55:00,
2013-06-24 09:57:00,79.9,79.1,30.15,North,359,0.0,0.0,97,0.00,,SKC,0.00,VWS V14.01,2013-06-24 13:57:00,
2013-06-24 09:58:00,79.8,79.0,30.15,North,359,0.0,0.0,97,0.00,,SKC,0.00,VWS V14.01,2013-06-24 13:58:00,
2013-06-24 10:00:00,79.8,79.0,30.16,North,359,0.0,0.0,98,0.00,,SKC,0.00,VWS V14.01,2013-06-24 14:00:00,
2013-06-24 10:02:00,79.7,78.9,30.16,North,359,0.0,0.0,97,0.00,,SKC,0.00,VWS V14.01,2013-06-24 14:02:00,
2013-06-24 10:03:00,79.7,78.8,30.16,North,359,0.0,0.0,97,0.00,,SKC,0.00,VWS V14.01,2013-06-24 14:03:00,
2013-06-24 10:05:00,79.7,79.2,30.16,North,359,0.0,0.0,98,0.00,,SKC,0.00,VWS V14.01,2013-06-24 14:05:00,
2013-06-24 10:08:00,79.8,78.9,30.16,North,359,0.0,0.0,97,0.00,,SKC,0.00,VWS V14.01,2013-06-24 14:08:00,
2013-06-24 10:09:00,79.8,78.9,30.16,North,359,0.0,0.0,97,0.00,,SKC,0.00,VWS V14.01,2013-06-24 14:09:00,
2013-06-24 10:10:00,79.8,78.8,30.16,North,359,0.0,0.0,97,0.00,,SKC,0.00,VWS V14.01,2013-06-24 14:10:00,
2013-06-24 10:13:00,79.8,78.8,30.16,North,359,0.0,0.0,97,0.00,,SKC,0.00,VWS V14.01,2013-06-24 14:13:00,
2013-06-24 10:14:00,79.9,78.9,30.16,North,359,0.0,0.0,97,0.00,,SKC,0.00,VWS V14.01,2013-06-24 14:14:00,
2013-06-24 10:15:00,80.0,79.1,30.16,North,359,0.0,0.0,97,0.00,,SKC,0.00,VWS V14.01,2013-06-24 14:15:00,
2013-06-24 10:19:00,80.0,78.9,30.16,North,359,0.0,0.0,96,0.00,,SKC,0.00,VWS V14.01,2013-06-24 14:19:00,
2013-06-24 10:20:00,80.0,78.9,30.16,North,359,0.0,0.0,96,0.00,,SKC,0.00,VWS V14.01,2013-06-24 14:20:00,
2013-06-24 10:24:00,80.1,79.2,30.15,North,359,0.0,0.0,97,0.00,,SKC,0.00,VWS V14.01,2013-06-24 14:24:00,
2013-06-24 10:25:00,80.3,79.2,30.16,North,359,0.0,0.0,97,0.00,,SKC,0.00,VWS V14.01,2013-06-24 14:25:00,
2013-06-24 10:26:00,80.3,79.2,30.16,North,359,0.0,0.0,97,0.00,,SKC,0.00,VWS V14.01,2013-06-24 14:26:00,
2013-06-24 10:29:00,80.3,79.0,30.16,North,359,0.0,0.0,96,0.00,,SKC,0.00,VWS V14.01,2013-06-24 14:29:00,
2013-06-24 10:30:00,80.3,79.1,30.16,North,359,0.0,0.0,96,0.00,,SKC,0.00,VWS V14.01,2013-06-24 14:30:00,
2013-06-24 10:31:00,80.3,79.1,30.16,North,359,0.0,0.0,96,0.00,,SKC,0.00,VWS V14.01,2013-06-24 14:31:00,
2013-06-24 10:34:00,80.3,79.1,30.16,North,359,0.0,0.0,96,0.00,,SKC,0.00,VWS V14.01,2013-06-24 14:34:00,
2013-06-24 10:35:00,80.4,79.2,30.16,North,359,0.0,0.0,96,0.00,,SKC,0.00,VWS V14.01,2013-06-24 14:35:00,
2013-06-24 10:36:00,80.4,79.1,30.17,North,359,0.0,0.0,96,0.00,,SKC,0.00,VWS V14.01,2013-06-24 14:36:00,
2013-06-24 10:40:00,80.5,79.1,30.16,North,359,0.0,0.0,96,0.00,,SKC,0.00,VWS V14.01,2013-06-24 14:40:00,
2013-06-24 10:41:00,80.5,79.0,30.16,North,359,0.0,0.0,95,0.00,,SKC,0.00,VWS V14.01,2013-06-24 14:41:00,
2013-06-24 10:42:00,80.4,78.9,30.16,North,359,0.0,0.0,95,0.00,,SKC,0.00,VWS V14.01,2013-06-24 14:42:00,
2013-06-24 10:45:00,80.6,79.0,30.16,North,359,0.0,0.0,95,0.00,,SKC,0.00,VWS V14.01,2013-06-24 14:45:00,
2013-06-24 10:47:00,80.4,78.9,30.16,North,359,0.0,0.0,95,0.00,,SKC,0.00,VWS V14.01,2013-06-24 14:47:00,
2013-06-24 10:50:00,80.5,79.2,30.16,North,359,0.0,0.0,96,0.00,,SKC,0.00,VWS V14.01,2013-06-24 14:50:00,
2013-06-24 10:52:00,80.3,79.0,30.16,North,359,0.0,0.0,96,0.00,,SKC,0.00,VWS V14.01,2013-06-24 14:52:00,
2013-06-24 10:55:00,80.2,79.0,30.16,North,359,0.0,0.0,96,0.00,,SKC,0.00,VWS V14.01,2013-06-24 14:55:00,
2013-06-24 10:57:00,80.3,79.0,30.16,North,359,0.0,0.0,96,0.00,,SKC,0.00,VWS V14.01,2013-06-24 14:57:00,
2013-06-24 10:58:00,80.3,79.1,30.16,North,359,0.0,0.0,96,0.00,,SKC,0.00,VWS V14.01,2013-06-24 14:58:00,
2013-06-24 11:00:00,80.4,79.3,30.16,North,359,0.0,0.0,96,0.00,,SKC,0.00,VWS V14.01,2013-06-24 15:00:00,
2013-06-24 11:01:00,80.4,79.3,30.16,North,359,0.0,0.0,96,0.00,,SKC,0.00,VWS V14.01,2013-06-24 15:01:00,
2013-06-24 11:03:00,80.5,79.2,30.16,North,359,0.0,0.0,96,0.00,,SKC,0.00,VWS V14.01,2013-06-24 15:03:00,
2013-06-24 11:04:00,80.4,79.2,30.16,North,359,0.0,0.0,96,0.00,,SKC,0.00,VWS V14.01,2013-06-24 15:04:00,
2013-06-24 11:05:00,80.5,79.2,30.16,North,359,0.0,0.0,96,0.00,,SKC,0.00,VWS V14.01,2013-06-24 15:05:00,
2013-06-24 11:06:00,80.5,79.4,30.16,North,359,0.0,0.0,96,0.00,,SKC,0.00,VWS V14.01,2013-06-24 15:06:00,
2013-06-24 11:08:00,80.4,79.2,30.16,North,359,0.0,0.0,96,0.00,,SKC,0.00,VWS V14.01,2013-06-24 15:08:00,
2013-06-24 11:10:00,80.4,78.9,30.16,North,359,0.0,0.0,95,0.00,,SKC,0.00,VWS V14.01,2013-06-24 15:10:00,
2013-06-24 11:11:00,80.4,79.0,30.16,North,359,0.0,0.0,95,0.00,,SKC,0.00,VWS V14.01,2013-06-24 15:11:00,
2013-06-24 11:12:00,80.5,79.1,30.16,North,359,0.0,0.0,95,0.00,,SKC,0.00,VWS V14.01,2013-06-24 15:12:00,
2013-06-24 11:14:00,80.5,79.1,30.16,North,359,0.0,0.0,96,0.00,,SKC,0.00,VWS V14.01,2013-06-24 15:14:00,
2013-06-24 11:16:00,80.4,78.9,30.15,North,359,0.0,0.0,95,0.00,,SKC,0.00,VWS V14.01,2013-06-24 15:16:00,
2013-06-24 11:18:00,80.4,78.9,30.16,North,359,0.0,0.0,95,0.00,,SKC,0.00,VWS V14.01,2013-06-24 15:18:00,
2013-06-24 11:19:00,80.5,78.9,30.16,North,359,0.0,0.0,95,0.00,,SKC,0.00,VWS V14.01,2013-06-24 15:19:00,
2013-06-24 11:21:00,80.5,79.1,30.16,North,359,0.0,0.0,96,0.00,,SKC,0.00,VWS V14.01,2013-06-24 15:21:00,
2013-06-24 11:23:00,80.5,79.2,30.15,North,359,0.0,0.0,96,0.00,,SKC,0.00,VWS V14.01,2013-06-24 15:23:00,
2013-06-24 11:24:00,80.6,79.3,30.16,North,359,0.0,0.0,96,0.00,,SKC,0.00,VWS V14.01,2013-06-24 15:24:00,
2013-06-24 11:27:00,80.6,79.0,30.16,North,359,0.0,0.0,95,0.00,,SKC,0.00,VWS V14.01,2013-06-24 15:27:00,
2013-06-24 11:28:00,80.5,78.8,30.16,North,359,0.0,0.0,95,0.00,,SKC,0.00,VWS V14.01,2013-06-24 15:28:00,
2013-06-24 11:30:00,80.4,78.9,30.16,North,359,0.0,0.0,95,0.00,,SKC,0.00,VWS V14.01,2013-06-24 15:30:00,
2013-06-24 11:32:00,80.4,78.6,30.16,North,359,0.0,0.0,94,0.00,,SKC,0.00,VWS V14.01,2013-06-24 15:32:00,
2013-06-24 11:33:00,80.5,78.9,30.16,North,359,0.0,0.0,95,0.00,,SKC,0.00,VWS V14.01,2013-06-24 15:33:00,
2013-06-24 11:34:00,80.4,78.4,30.15,North,359,0.0,0.0,94,0.00,,SKC,0.00,VWS V14.01,2013-06-24 15:34:00,
2013-06-24 11:35:00,80.4,78.7,30.15,North,359,0.0,0.0,94,0.00,,SKC,0.00,VWS V14.01,2013-06-24 15:35:00,
2013-06-24 11:37:00,80.5,78.7,30.16,North,359,0.0,0.0,94,0.00,,SKC,0.00,VWS V14.01,2013-06-24 15:37:00,
2013-06-24 11:38:00,80.4,79.0,30.16,North,359,0.0,0.0,95,0.00,,SKC,0.00,VWS V14.01,2013-06-24 15:38:00,
2013-06-24 11:39:00,80.4,79.0,30.16,North,359,0.0,0.0,96,0.00,,SKC,0.00,VWS V14.01,2013-06-24 15:39:00,
2013-06-24 11:40:00,80.4,79.0,30.15,North,359,0.0,0.0,96,0.00,,SKC,0.00,VWS V14.01,2013-06-24 15:40:00,
2013-06-24 11:42:00,80.4,79.1,30.15,North,359,0.0,0.0,96,0.00,,SKC,0.00,VWS V14.01,2013-06-24 15:42:00,
2013-06-24 11:44:00,80.5,79.0,30.15,North,359,0.0,0.0,95,0.00,,SKC,0.00,VWS V14.01,2013-06-24 15:44:00,
2013-06-24 11:46:00,80.3,78.8,30.15,North,359,0.0,0.0,95,0.00,,SKC,0.00,VWS V14.01,2013-06-24 15:46:00,
2013-06-24 11:48:00,80.3,78.8,30.15,North,359,0.0,0.0,95,0.00,,SKC,0.00,VWS V14.01,2013-06-24 15:48:00,
2013-06-24 11:49:00,80.6,79.0,30.15,North,359,0.0,0.0,95,0.00,,SKC,0.00,VWS V14.01,2013-06-24 15:49:00,
2013-06-24 11:51:00,80.8,79.0,30.15,North,359,0.0,0.0,94,0.00,,SKC,0.00,VWS V14.01,2013-06-24 15:51:00,
2013-06-24 11:53:00,80.8,78.8,30.15,North,359,0.0,0.0,94,0.00,,SKC,0.00,VWS V14.01,2013-06-24 15:53:00,
2013-06-24 11:54:00,80.9,79.2,30.15,North,359,0.0,0.0,95,0.00,,SKC,0.00,VWS V14.01,2013-06-24 15:54:00,
2013-06-24 11:55:00,81.0,79.0,30.15,North,359,0.0,0.0,94,0.00,,SKC,0.00,VWS V14.01,2013-06-24 15:55:00,
2013-06-24 11:56:00,80.9,79.0,30.15,North,359,0.0,0.0,94,0.00,,SKC,0.00,VWS V14.01,2013-06-24 15:56:00,
2013-06-24 11:58:00,80.9,78.8,30.15,North,359,0.0,0.0,93,0.00,,SKC,0.00,VWS V14.01,2013-06-24 15:58:00,
2013-06-24 12:00:00,81.0,79.3,30.16,North,359,0.0,0.0,94,0.00,,SKC,0.00,VWS V14.01,2013-06-24 16:00:00,
2013-06-24 12:01:00,81.2,79.4,30.15,North,359,0.0,0.0,94,0.00,,SKC,0.00,VWS V14.01,2013-06-24 16:01:00,
2013-06-24 12:04:00,81.4,79.0,30.16,North,359,0.0,0.0,92,0.00,,SKC,0.00,VWS V14.01,2013-06-24 16:04:00,
2013-06-24 12:05:00,81.4,78.4,30.16,North,359,0.0,0.0,92,0.00,,SKC,0.00,VWS V14.01,2013-06-24 16:05:00,
2013-06-24 12:06:00,81.4,78.7,30.16,North,359,0.0,0.0,92,0.00,,SKC,0.00,VWS V14.01,2013-06-24 16:06:00,
2013-06-24 12:09:00,81.2,78.5,30.15,North,359,0.0,0.0,92,0.00,,SKC,0.00,VWS V14.01,2013-06-24 16:09:00,
2013-06-24 12:10:00,81.3,79.0,30.16,North,359,0.0,0.0,93,0.00,,SKC,0.00,VWS V14.01,2013-06-24 16:10:00,
2013-06-24 12:11:00,81.3,78.2,30.16,North,359,0.0,0.0,90,0.00,,SKC,0.00,VWS V14.01,2013-06-24 16:11:00,
2013-06-24 12:14:00,81.4,78.6,30.16,North,359,0.0,0.0,91,0.00,,SKC,0.00,VWS V14.01,2013-06-24 16:14:00,
2013-06-24 12:15:00,81.4,77.9,30.15,North,359,0.0,0.0,89,0.00,,SKC,0.00,VWS V14.01,2013-06-24 16:15:00,
2013-06-24 12:16:00,81.3,77.7,30.15,North,359,0.0,0.0,89,0.00,,SKC,0.00,VWS V14.01,2013-06-24 16:16:00,
2013-06-24 12:19:00,80.9,78.0,30.15,North,359,0.0,0.0,91,0.00,,SKC,0.00,VWS V14.01,2013-06-24 16:19:00,
2013-06-24 12:20:00,80.9,77.8,30.15,North,359,0.0,0.0,90,0.00,,SKC,0.00,VWS V14.01,2013-06-24 16:20:00,
2013-06-24 12:21:00,81.0,78.4,30.15,North,359,0.0,0.0,92,0.00,,SKC,0.00,VWS V14.01,2013-06-24 16:21:00,
2013-06-24 12:22:00,80.9,78.3,30.15,North,359,0.0,0.0,92,0.00,,SKC,0.00,VWS V14.01,2013-06-24 16:22:00,
2013-06-24 12:24:00,81.1,78.2,30.15,North,359,0.0,0.0,91,0.00,,SKC,0.00,VWS V14.01,2013-06-24 16:24:00,
2013-06-24 12:25:00,81.3,78.6,30.15,North,359,0.0,0.0,91,0.00,,SKC,0.00,VWS V14.01,2013-06-24 16:25:00,
2013-06-24 12:26:00,81.3,78.3,30.15,North,359,0.0,0.0,91,0.00,,SKC,0.00,VWS V14.01,2013-06-24 16:26:00,
2013-06-24 12:27:00,81.3,78.4,30.15,North,359,0.0,0.0,91,0.00,,SKC,0.00,VWS V14.01,2013-06-24 16:27:00,
2013-06-24 12:29:00,81.3,78.4,30.16,North,359,0.0,0.0,91,0.00,,SKC,0.00,VWS V14.01,2013-06-24 16:29:00,
2013-06-24 12:30:00,81.1,77.7,30.15,North,359,0.0,0.0,90,0.00,,SKC,0.00,VWS V14.01,2013-06-24 16:30:00,
2013-06-24 12:32:00,81.0,77.8,30.15,North,359,0.0,0.0,90,0.00,,SKC,0.00,VWS V14.01,2013-06-24 16:32:00,
2013-06-24 12:33:00,81.0,77.9,30.15,North,359,0.0,0.0,91,0.00,,SKC,0.00,VWS V14.01,2013-06-24 16:33:00,
2013-06-24 12:34:00,80.5,77.4,30.15,North,359,0.0,0.0,90,0.00,,SKC,0.00,VWS V14.01,2013-06-24 16:34:00,
2013-06-24 12:36:00,80.5,77.7,30.15,North,359,0.0,0.0,91,0.00,,SKC,0.00,VWS V14.01,2013-06-24 16:36:00,
2013-06-24 12:37:00,80.5,77.6,30.15,North,359,0.0,0.0,91,0.00,,SKC,0.00,VWS V14.01,2013-06-24 16:37:00,
2013-06-24 12:38:00,80.6,77.8,30.15,North,359,0.0,0.0,91,0.00,,SKC,0.00,VWS V14.01,2013-06-24 16:38:00,
2013-06-24 12:39:00,80.6,77.3,30.15,North,359,0.0,0.0,90,0.00,,SKC,0.00,VWS V14.01,2013-06-24 16:39:00,
2013-06-24 12:42:00,80.7,77.4,30.15,North,359,0.0,0.0,90,0.00,,SKC,0.00,VWS V14.01,2013-06-24 16:42:00,
2013-06-24 12:43:00,81.0,77.7,30.15,North,359,0.0,0.0,90,0.00,,SKC,0.00,VWS V14.01,2013-06-24 16:43:00,
2013-06-24 12:44:00,81.0,77.3,30.15,North,359,0.0,0.0,89,0.00,,SKC,0.00,VWS V14.01,2013-06-24 16:44:00,
2013-06-24 12:47:00,81.3,76.8,30.15,North,359,0.0,0.0,86,0.00,,SKC,0.00,VWS V14.01,2013-06-24 16:47:00,
2013-06-24 12:48:00,81.3,76.6,30.15,North,359,0.0,0.0,86,0.00,,SKC,0.00,VWS V14.01,2013-06-24 16:48:00,
2013-06-24 12:49:00,81.3,76.5,30.15,North,359,0.0,0.0,85,0.00,,SKC,0.00,VWS V14.01,2013-06-24 16:49:00,
2013-06-24 12:50:00,81.6,76.6,30.15,North,359,0.0,0.0,85,0.00,,SKC,0.00,VWS V14.01,2013-06-24 16:50:00,
2013-06-24 12:53:00,81.6,75.2,30.15,North,359,0.0,0.0,81,0.00,,SKC,0.00,VWS V14.01,2013-06-24 16:53:00,
2013-06-24 12:54:00,81.8,75.8,30.15,North,359,0.0,0.0,82,0.00,,SKC,0.00,VWS V14.01,2013-06-24 16:54:00,
2013-06-24 12:56:00,81.6,75.3,30.15,North,359,0.0,0.0,81,0.00,,SKC,0.00,VWS V14.01,2013-06-24 16:56:00,
2013-06-24 12:58:00,81.7,75.9,30.16,North,359,0.0,0.0,83,0.00,,SKC,0.00,VWS V14.01,2013-06-24 16:58:00,
2013-06-24 12:59:00,81.7,76.0,30.16,North,359,0.0,0.0,83,0.00,,SKC,0.00,VWS V14.01,2013-06-24 16:59:00,
2013-06-24 13:01:00,81.8,75.6,30.16,North,359,0.0,0.0,81,0.00,,SKC,0.00,VWS V14.01,2013-06-24 17:01:00,
2013-06-24 13:03:00,82.0,75.1,30.16,North,359,0.0,0.0,80,0.00,,SKC,0.00,VWS V14.01,2013-06-24 17:03:00,
2013-06-24 13:04:00,82.0,74.5,30.15,North,359,0.0,0.0,78,0.00,,SKC,0.00,VWS V14.01,2013-06-24 17:04:00,
2013-06-24 13:06:00,81.8,74.3,30.15,North,359,0.0,0.0,78,0.00,,SKC,0.00,VWS V14.01,2013-06-24 17:06:00,
2013-06-24 13:09:00,81.8,74.2,30.16,North,359,0.0,0.0,77,0.00,,SKC,0.00,VWS V14.01,2013-06-24 17:09:00,
2013-06-24 13:10:00,81.9,74.4,30.15,North,359,0.0,0.0,78,0.00,,SKC,0.00,VWS V14.01,2013-06-24 17:10:00,
2013-06-24 13:12:00,81.8,70.0,30.15,North,359,0.0,0.0,68,0.00,,SKC,0.00,VWS V14.01,2013-06-24 17:12:00,
2013-06-24 13:15:00,81.9,70.5,30.16,North,359,0.0,0.0,68,0.00,,SKC,0.00,VWS V14.01,2013-06-24 17:15:00,
2013-06-24 13:18:00,81.9,69.3,30.16,North,359,0.0,0.0,66,0.00,,SKC,0.00,VWS V14.01,2013-06-24 17:18:00,
2013-06-24 13:20:00,82.0,69.3,30.16,North,359,0.0,0.0,66,0.00,,SKC,0.00,VWS V14.01,2013-06-24 17:20:00,
2013-06-24 13:21:00,81.9,67.7,30.16,North,359,0.0,0.0,62,0.00,,SKC,0.00,VWS V14.01,2013-06-24 17:21:00,
2013-06-24 13:23:00,81.7,68.8,30.16,North,359,0.0,0.0,65,0.00,,SKC,0.00,VWS V14.01,2013-06-24 17:23:00,
2013-06-24 13:25:00,81.6,70.3,30.16,North,359,0.0,0.0,69,0.00,,SKC,0.00,VWS V14.01,2013-06-24 17:25:00,
2013-06-24 13:26:00,81.8,71.0,30.16,North,359,0.0,0.0,70,0.00,,SKC,0.00,VWS V14.01,2013-06-24 17:26:00,
2013-06-24 13:29:00,82.0,71.5,30.16,North,359,0.0,0.0,70,0.00,,SKC,0.00,VWS V14.01,2013-06-24 17:29:00,
2013-06-24 13:30:00,82.1,72.1,30.16,North,359,0.0,0.0,71,0.00,,SKC,0.00,VWS V14.01,2013-06-24 17:30:00,
2013-06-24 13:31:00,82.3,71.7,30.16,North,359,0.0,0.0,70,0.00,,SKC,0.00,VWS V14.01,2013-06-24 17:31:00,
2013-06-24 13:34:00,82.3,72.1,30.15,North,359,0.0,0.0,71,0.00,,SKC,0.00,VWS V14.01,2013-06-24 17:34:00,
2013-06-24 13:35:00,82.3,72.6,30.16,North,359,0.0,0.0,73,0.00,,SKC,0.00,VWS V14.01,2013-06-24 17:35:00,
2013-06-24 13:36:00,82.0,72.1,30.16,North,359,0.0,0.0,72,0.00,,SKC,0.00,VWS V14.01,2013-06-24 17:36:00,
2013-06-24 13:37:00,81.9,71.9,30.16,North,359,0.0,0.0,72,0.00,,SKC,0.00,VWS V14.01,2013-06-24 17:37:00,
2013-06-24 13:39:00,81.6,72.2,30.15,North,359,0.0,0.0,73,0.00,,SKC,0.00,VWS V14.01,2013-06-24 17:39:00,
2013-06-24 13:40:00,81.7,72.3,30.15,North,359,0.0,0.0,73,0.00,,SKC,0.00,VWS V14.01,2013-06-24 17:40:00,
2013-06-24 13:41:00,81.6,72.6,30.15,North,359,0.0,0.0,74,0.00,,SKC,0.00,VWS V14.01,2013-06-24 17:41:00,
2013-06-24 13:42:00,81.7,73.1,30.15,North,359,0.0,0.0,75,0.00,,SKC,0.00,VWS V14.01,2013-06-24 17:42:00,
2013-06-24 13:44:00,81.8,73.5,30.15,North,359,0.0,0.0,76,0.00,,SKC,0.00,VWS V14.01,2013-06-24 17:44:00,
2013-06-24 13:45:00,81.9,74.1,30.15,North,359,0.0,0.0,77,0.00,,SKC,0.00,VWS V14.01,2013-06-24 17:45:00,
2013-06-24 13:47:00,82.2,74.3,30.15,North,359,0.0,0.0,77,0.00,,SKC,0.00,VWS V14.01,2013-06-24 17:47:00,
2013-06-24 13:49:00,82.4,73.7,30.15,North,359,0.0,0.0,75,0.00,,SKC,0.00,VWS V14.01,2013-06-24 17:49:00,
2013-06-24 13:50:00,82.4,74.0,30.15,North,359,0.0,0.0,76,0.00,,SKC,0.00,VWS V14.01,2013-06-24 17:50:00,
2013-06-24 13:52:00,82.5,73.4,30.15,North,359,0.0,0.0,74,0.00,,SKC,0.00,VWS V14.01,2013-06-24 17:52:00,
2013-06-24 13:54:00,82.2,72.7,30.15,North,359,0.0,0.0,73,0.00,,SKC,0.00,VWS V14.01,2013-06-24 17:54:00,
2013-06-24 13:55:00,82.2,73.2,30.15,North,359,0.0,0.0,74,0.00,,SKC,0.00,VWS V14.01,2013-06-24 17:55:00,
2013-06-24 13:57:00,82.2,72.8,30.15,North,359,0.0,0.0,73,0.00,,SKC,0.00,VWS V14.01,2013-06-24 17:57:00,
2013-06-24 13:58:00,82.0,72.7,30.15,North,359,0.0,0.0,74,0.00,,SKC,0.00,VWS V14.01,2013-06-24 17:58:00,
2013-06-24 14:00:00,81.6,72.7,30.15,North,359,0.0,0.0,74,0.00,,SKC,0.00,VWS V14.01,2013-06-24 18:00:00,
2013-06-24 14:02:00,81.7,73.3,30.15,North,359,0.0,0.0,76,0.00,,SKC,0.00,VWS V14.01,2013-06-24 18:02:00,
2013-06-24 14:03:00,81.8,73.3,30.15,North,359,0.0,0.0,77,0.00,,SKC,0.00,VWS V14.01,2013-06-24 18:03:00,
2013-06-24 14:05:00,81.6,73.0,30.15,North,359,0.0,0.0,75,0.00,,SKC,0.00,VWS V14.01,2013-06-24 18:05:00,
2013-06-24 14:07:00,81.5,73.4,30.15,North,359,0.0,0.0,77,0.00,,SKC,0.00,VWS V14.01,2013-06-24 18:07:00,
2013-06-24 14:08:00,81.3,72.9,30.15,North,359,0.0,0.0,76,0.00,,SKC,0.00,VWS V14.01,2013-06-24 18:08:00,
2013-06-24 14:10:00,81.4,72.8,30.15,North,359,0.0,0.0,75,0.00,,SKC,0.00,VWS V14.01,2013-06-24 18:10:00,
2013-06-24 14:12:00,81.5,72.2,30.15,North,359,0.0,0.0,73,0.00,,SKC,0.00,VWS V14.01,2013-06-24 18:12:00,
2013-06-24 14:13:00,81.6,72.6,30.15,North,359,0.0,0.0,74,0.00,,SKC,0.00,VWS V14.01,2013-06-24 18:13:00,
2013-06-24 14:16:00,82.4,73.6,30.14,North,359,0.0,0.0,75,0.00,,SKC,0.00,VWS V14.01,2013-06-24 18:16:00,
2013-06-24 14:17:00,82.4,72.5,30.14,North,359,0.0,0.0,72,0.00,,SKC,0.00,VWS V14.01,2013-06-24 18:17:00,
2013-06-24 14:18:00,82.5,72.8,30.14,North,359,0.0,0.0,73,0.00,,SKC,0.00,VWS V14.01,2013-06-24 18:18:00,
2013-06-24 14:22:00,81.9,73.6,30.14,North,359,0.0,0.0,76,0.00,,SKC,0.00,VWS V14.01,2013-06-24 18:22:00,
2013-06-24 14:23:00,81.9,74.3,30.14,North,359,0.0,0.0,78,0.00,,SKC,0.00,VWS V14.01,2013-06-24 18:23:00,
2013-06-24 14:24:00,82.0,74.5,30.14,North,359,0.0,0.0,78,0.00,,SKC,0.00,VWS V14.01,2013-06-24 18:24:00,
2013-06-24 14:27:00,82.1,74.5,30.14,North,359,0.0,0.0,78,0.00,,SKC,0.00,VWS V14.01,2013-06-24 18:27:00,
2013-06-24 14:28:00,82.1,74.6,30.14,North,359,0.0,0.0,78,0.00,,SKC,0.00,VWS V14.01,2013-06-24 18:28:00,
2013-06-24 14:29:00,82.1,74.1,30.14,North,359,0.0,0.0,77,0.00,,SKC,0.00,VWS V14.01,2013-06-24 18:29:00,
2013-06-24 14:32:00,82.0,74.2,30.13,North,359,0.0,0.0,77,0.00,,SKC,0.00,VWS V14.01,2013-06-24 18:32:00,
2013-06-24 14:33:00,81.9,73.9,30.14,North,359,0.0,0.0,77,0.00,,SKC,0.00,VWS V14.01,2013-06-24 18:33:00,
2013-06-24 14:34:00,81.9,74.0,30.14,North,359,0.0,0.0,77,0.00,,SKC,0.00,VWS V14.01,2013-06-24 18:34:00,
2013-06-24 14:37:00,82.3,74.1,30.14,North,359,0.0,0.0,76,0.00,,SKC,0.00,VWS V14.01,2013-06-24 18:37:00,
2013-06-24 14:39:00,82.4,74.7,30.14,North,359,0.0,0.0,78,0.00,,SKC,0.00,VWS V14.01,2013-06-24 18:39:00,
2013-06-24 14:42:00,81.7,73.9,30.13,North,359,0.0,0.0,78,0.00,,SKC,0.00,VWS V14.01,2013-06-24 18:42:00,
2013-06-24 14:44:00,81.5,74.6,30.14,North,359,0.0,0.0,80,0.00,,SKC,0.00,VWS V14.01,2013-06-24 18:44:00,
2013-06-24 14:45:00,81.7,74.9,30.14,North,359,0.0,0.0,80,0.00,,SKC,0.00,VWS V14.01,2013-06-24 18:45:00,
2013-06-24 14:48:00,82.2,75.2,30.14,North,359,0.0,0.0,79,0.00,,SKC,0.00,VWS V14.01,2013-06-24 18:48:00,
2013-06-24 14:49:00,82.3,75.1,30.14,North,359,0.0,0.0,79,0.00,,SKC,0.00,VWS V14.01,2013-06-24 18:49:00,
2013-06-24 14:50:00,82.4,75.1,30.14,North,359,0.0,0.0,79,0.00,,SKC,0.00,VWS V14.01,2013-06-24 18:50:00,
2013-06-24 14:53:00,82.7,75.3,30.14,North,359,0.0,0.0,78,0.00,,SKC,0.00,VWS V14.01,2013-06-24 18:53:00,
2013-06-24 14:55:00,82.7,74.5,30.14,North,359,0.0,0.0,76,0.00,,SKC,0.00,VWS V14.01,2013-06-24 18:55:00,
2013-06-24 14:58:00,82.7,74.4,30.13,North,359,0.0,0.0,76,0.00,,SKC,0.00,VWS V14.01,2013-06-24 18:58:00,
2013-06-24 15:00:00,82.6,74.1,30.13,North,359,0.0,0.0,76,0.00,,SKC,0.00,VWS V14.01,2013-06-24 19:00:00,
2013-06-24 15:01:00,82.5,74.3,30.13,North,359,0.0,0.0,76,0.00,,SKC,0.00,VWS V14.01,2013-06-24 19:01:00,
2013-06-24 15:03:00,82.4,75.1,30.13,North,359,0.0,0.0,78,0.00,,SKC,0.00,VWS V14.01,2013-06-24 19:03:00,
2013-06-24 15:05:00,82.4,73.7,30.13,North,359,0.0,0.0,75,0.00,,SKC,0.00,VWS V14.01,2013-06-24 19:05:00,
2013-06-24 15:06:00,82.4,73.8,30.13,North,359,0.0,0.0,75,0.00,,SKC,0.00,VWS V14.01,2013-06-24 19:06:00,
2013-06-24 15:08:00,82.4,72.5,30.13,North,359,0.0,0.0,72,0.00,,SKC,0.00,VWS V14.01,2013-06-24 19:08:00,
2013-06-24 15:11:00,82.4,73.0,30.13,North,359,0.0,0.0,73,0.00,,SKC,0.00,VWS V14.01,2013-06-24 19:11:00,
2013-06-24 15:13:00,82.1,73.5,30.13,North,359,0.0,0.0,75,0.00,,SKC,0.00,VWS V14.01,2013-06-24 19:13:00,
2013-06-24 15:16:00,81.9,72.4,30.13,North,359,0.0,0.0,73,0.00,,SKC,0.00,VWS V14.01,2013-06-24 19:16:00,
2013-06-24 15:17:00,81.8,72.5,30.13,North,359,0.0,0.0,73,0.00,,SKC,0.00,VWS V14.01,2013-06-24 19:17:00,
2013-06-24 15:20:00,81.9,74.2,30.13,North,359,0.0,0.0,78,0.00,,SKC,0.00,VWS V14.01,2013-06-24 19:20:00,
2013-06-24 15:21:00,82.0,73.9,30.14,North,359,0.0,0.0,77,0.00,,SKC,0.00,VWS V14.01,2013-06-24 19:21:00,
2013-06-24 15:22:00,82.1,73.9,30.14,North,359,0.0,0.0,76,0.00,,SKC,0.00,VWS V14.01,2013-06-24 19:22:00,
2013-06-24 15:25:00,82.1,73.3,30.13,North,359,0.0,0.0,75,0.00,,SKC,0.00,VWS V14.01,2013-06-24 19:25:00,
2013-06-24 15:27:00,82.2,74.3,30.13,North,359,0.0,0.0,77,0.00,,SKC,0.00,VWS V14.01,2013-06-24 19:27:00,
2013-06-24 15:28:00,82.4,74.3,30.13,North,359,0.0,0.0,76,0.00,,SKC,0.00,VWS V14.01,2013-06-24 19:28:00,
2013-06-24 15:30:00,82.2,73.0,30.13,North,359,0.0,0.0,74,0.00,,SKC,0.00,VWS V14.01,2013-06-24 19:30:00,
2013-06-24 15:32:00,81.8,73.1,30.13,North,359,0.0,0.0,75,0.00,,SKC,0.00,VWS V14.01,2013-06-24 19:32:00,
2013-06-24 15:33:00,81.7,73.2,30.13,North,359,0.0,0.0,75,0.00,,SKC,0.00,VWS V14.01,2013-06-24 19:33:00,
2013-06-24 15:35:00,81.7,73.3,30.13,North,359,0.0,0.0,76,0.00,,SKC,0.00,VWS V14.01,2013-06-24 19:35:00,
2013-06-24 15:37:00,81.4,73.6,30.13,North,359,0.0,0.0,77,0.00,,SKC,0.00,VWS V14.01,2013-06-24 19:37:00,
2013-06-24 15:38:00,81.5,74.0,30.13,North,359,0.0,0.0,78,0.00,,SKC,0.00,VWS V14.01,2013-06-24 19:38:00,
2013-06-24 15:40:00,81.5,73.0,30.13,North,359,0.0,0.0,75,0.00,,SKC,0.00,VWS V14.01,2013-06-24 19:40:00,
2013-06-24 15:42:00,81.5,73.9,30.13,North,359,0.0,0.0,77,0.00,,SKC,0.00,VWS V14.01,2013-06-24 19:42:00,
2013-06-24 15:43:00,81.6,74.3,30.13,North,359,0.0,0.0,78,0.00,,SKC,0.00,VWS V14.01,2013-06-24 19:43:00,
2013-06-24 15:45:00,81.7,74.7,30.13,North,359,0.0,0.0,80,0.00,,SKC,0.00,VWS V14.01,2013-06-24 19:45:00,
2013-06-24 15:47:00,81.9,74.4,30.13,North,359,0.0,0.0,79,0.00,,SKC,0.00,VWS V14.01,2013-06-24 19:47:00,
2013-06-24 15:48:00,81.8,74.1,30.13,North,359,0.0,0.0,77,0.00,,SKC,0.00,VWS V14.01,2013-06-24 19:48:00,
2013-06-24 15:51:00,81.7,74.2,30.13,North,359,0.0,0.0,78,0.00,,SKC,0.00,VWS V14.01,2013-06-24 19:51:00,
2013-06-24 15:52:00,81.8,74.2,30.13,North,359,0.0,0.0,78,0.00,,SKC,0.00,VWS V14.01,2013-06-24 19:52:00,
2013-06-24 15:53:00,81.8,73.8,30.13,North,359,0.0,0.0,77,0.00,,SKC,0.00,VWS V14.01,2013-06-24 19:53:00,
2013-06-24 15:54:00,81.9,73.9,30.13,North,359,0.0,0.0,77,0.00,,SKC,0.00,VWS V14.01,2013-06-24 19:54:00,
2013-06-24 15:56:00,82.2,74.2,30.13,North,359,0.0,0.0,77,0.00,,SKC,0.00,VWS V14.01,2013-06-24 19:56:00,
2013-06-24 15:57:00,82.5,74.3,30.13,North,359,0.0,0.0,76,0.00,,SKC,0.00,VWS V14.01,2013-06-24 19:57:00,
2013-06-24 15:58:00,82.4,73.7,30.13,North,359,0.0,0.0,76,0.00,,SKC,0.00,VWS V14.01,2013-06-24 19:58:00,
2013-06-24 15:59:00,82.4,73.4,30.13,North,359,0.0,0.0,74,0.00,,SKC,0.00,VWS V14.01,2013-06-24 19:59:00,
2013-06-24 16:01:00,82.3,73.2,30.13,North,359,0.0,0.0,74,0.00,,SKC,0.00,VWS V14.01,2013-06-24 20:01:00,
2013-06-24 16:03:00,82.1,73.8,30.13,North,359,0.0,0.0,76,0.00,,SKC,0.00,VWS V14.01,2013-06-24 20:03:00,
2013-06-24 16:04:00,82.1,74.6,30.12,North,359,0.0,0.0,77,0.00,,SKC,0.00,VWS V14.01,2013-06-24 20:04:00,
2013-06-24 16:06:00,81.9,72.8,30.13,North,359,0.0,0.0,74,0.00,,SKC,0.00,VWS V14.01,2013-06-24 20:06:00,
2013-06-24 16:08:00,81.5,72.5,30.13,North,359,0.0,0.0,74,0.00,,SKC,0.00,VWS V14.01,2013-06-24 20:08:00,
2013-06-24 16:09:00,81.5,72.9,30.13,North,359,0.0,0.0,75,0.00,,SKC,0.00,VWS V14.01,2013-06-24 20:09:00,
2013-06-24 16:12:00,81.5,72.4,30.13,North,359,0.0,0.0,74,0.00,,SKC,0.00,VWS V14.01,2013-06-24 20:12:00,
2013-06-24 16:13:00,81.5,73.2,30.12,North,359,0.0,0.0,76,0.00,,SKC,0.00,VWS V14.01,2013-06-24 20:13:00,
2013-06-24 16:15:00,81.6,73.5,30.12,North,359,0.0,0.0,77,0.00,,SKC,0.00,VWS V14.01,2013-06-24 20:15:00,
2013-06-24 16:17:00,81.7,73.4,30.12,North,359,0.0,0.0,76,0.00,,SKC,0.00,VWS V14.01,2013-06-24 20:17:00,
2013-06-24 16:18:00,81.8,73.9,30.12,North,359,0.0,3.7,77,0.00,,SKC,0.00,VWS V14.01,2013-06-24 20:18:00,
2013-06-24 16:20:00,82.1,73.9,30.12,North,359,0.0,3.7,76,0.00,,SKC,0.00,VWS V14.01,2013-06-24 20:20:00,
2013-06-24 16:22:00,82.2,73.1,30.12,North,359,0.0,3.7,74,0.00,,SKC,0.00,VWS V14.01,2013-06-24 20:22:00,
2013-06-24 16:24:00,82.2,73.1,30.12,North,359,0.0,3.7,74,0.00,,SKC,0.00,VWS V14.01,2013-06-24 20:24:00,
2013-06-24 16:25:00,82.1,73.7,30.12,North,359,0.0,3.7,75,0.00,,SKC,0.00,VWS V14.01,2013-06-24 20:25:00,
2013-06-24 16:26:00,82.0,72.9,30.11,North,359,0.0,3.7,74,0.00,,SKC,0.00,VWS V14.01,2013-06-24 20:26:00,
2013-06-24 16:28:00,81.9,73.2,30.11,North,359,0.0,3.7,75,0.00,,SKC,0.00,VWS V14.01,2013-06-24 20:28:00,
2013-06-24 16:29:00,82.2,74.1,30.11,North,359,0.0,3.7,77,0.00,,SKC,0.00,VWS V14.01,2013-06-24 20:29:00,
2013-06-24 16:31:00,82.4,74.0,30.11,North,359,0.0,3.7,76,0.00,,SKC,0.00,VWS V14.01,2013-06-24 20:31:00,
2013-06-24 16:33:00,82.7,74.0,30.11,North,359,0.0,3.7,75,0.00,,SKC,0.00,VWS V14.01,2013-06-24 20:33:00,
2013-06-24 16:34:00,82.6,72.5,30.11,North,359,0.0,3.7,72,0.00,,SKC,0.00,VWS V14.01,2013-06-24 20:34:00,
2013-06-24 16:36:00,82.4,72.4,30.11,North,359,0.0,3.7,72,0.00,,SKC,0.00,VWS V14.01,2013-06-24 20:36:00,
2013-06-24 16:37:00,82.5,73.0,30.11,North,359,0.0,3.7,73,0.00,,SKC,0.00,VWS V14.01,2013-06-24 20:37:00,
2013-06-24 16:38:00,82.4,72.8,30.11,North,359,0.0,3.7,73,0.00,,SKC,0.00,VWS V14.01,2013-06-24 20:38:00,
2013-06-24 16:39:00,82.1,72.8,30.11,North,359,0.0,3.7,74,0.00,,SKC,0.00,VWS V14.01,2013-06-24 20:39:00,
2013-06-24 16:41:00,81.9,72.8,30.11,North,359,0.0,3.7,74,0.00,,SKC,0.00,VWS V14.01,2013-06-24 20:41:00,
2013-06-24 16:42:00,81.9,73.3,30.11,North,359,0.0,3.7,75,0.00,,SKC,0.00,VWS V14.01,2013-06-24 20:42:00,
2013-06-24 16:43:00,81.9,73.1,30.11,North,359,0.0,3.7,75,0.00,,SKC,0.00,VWS V14.01,2013-06-24 20:43:00,
2013-06-24 16:45:00,82.1,73.4,30.11,North,359,0.0,3.7,75,0.00,,SKC,0.00,VWS V14.01,2013-06-24 20:45:00,
2013-06-24 16:46:00,82.2,73.1,30.11,North,359,0.0,3.7,74,0.00,,SKC,0.00,VWS V14.01,2013-06-24 20:46:00,
2013-06-24 16:47:00,82.4,72.4,30.12,North,359,0.0,3.7,72,0.00,,SKC,0.00,VWS V14.01,2013-06-24 20:47:00,
2013-06-24 16:48:00,82.4,72.1,30.12,North,359,0.0,3.7,71,0.00,,SKC,0.00,VWS V14.01,2013-06-24 20:48:00,
2013-06-24 16:50:00,82.4,72.6,30.11,North,359,0.0,3.7,72,0.00,,SKC,0.00,VWS V14.01,2013-06-24 20:50:00,
2013-06-24 16:51:00,82.4,72.3,30.11,North,359,0.0,3.7,72,0.00,,SKC,0.00,VWS V14.01,2013-06-24 20:51:00,
2013-06-24 16:52:00,82.4,71.8,30.11,North,359,0.0,3.7,70,0.00,,SKC,0.00,VWS V14.01,2013-06-24 20:52:00,
2013-06-24 16:53:00,82.2,72.0,30.11,North,359,0.0,3.7,71,0.00,,SKC,0.00,VWS V14.01,2013-06-24 20:53:00,
2013-06-24 16:56:00,82.3,73.0,30.11,North,359,0.0,3.7,74,0.00,,SKC,0.00,VWS V14.01,2013-06-24 20:56:00,
2013-06-24 16:58:00,82.5,73.3,30.11,North,359,0.3,3.7,74,0.00,,SKC,0.00,VWS V14.01,2013-06-24 20:58:00,
2013-06-24 17:01:00,82.4,71.9,30.11,North,359,0.0,3.7,71,0.00,,SKC,0.00,VWS V14.01,2013-06-24 21:01:00,
2013-06-24 17:02:00,82.3,71.9,30.11,North,359,0.0,3.7,71,0.00,,SKC,0.00,VWS V14.01,2013-06-24 21:02:00,
2013-06-24 17:03:00,82.3,72.6,30.11,North,359,0.0,3.7,73,0.00,,SKC,0.00,VWS V14.01,2013-06-24 21:03:00,
2013-06-24 17:04:00,82.3,73.0,30.11,North,359,0.0,3.7,74,0.00,,SKC,0.00,VWS V14.01,2013-06-24 21:04:00,
2013-06-24 17:06:00,82.4,73.1,30.11,North,359,0.0,3.7,74,0.00,,SKC,0.00,VWS V14.01,2013-06-24 21:06:00,
2013-06-24 17:07:00,82.4,72.7,30.10,North,359,0.0,3.7,72,0.00,,SKC,0.00,VWS V14.01,2013-06-24 21:07:00,
2013-06-24 17:08:00,82.4,72.4,30.11,North,359,0.0,3.7,72,0.00,,SKC,0.00,VWS V14.01,2013-06-24 21:08:00,
2013-06-24 17:10:00,82.4,72.7,30.11,North,359,0.0,3.7,72,0.00,,SKC,0.00,VWS V14.01,2013-06-24 21:10:00,
2013-06-24 17:12:00,82.2,73.1,30.10,North,359,0.0,3.7,74,0.00,,SKC,0.00,VWS V14.01,2013-06-24 21:12:00,
2013-06-24 17:13:00,82.1,73.4,30.11,North,359,0.0,3.7,75,0.00,,SKC,0.00,VWS V14.01,2013-06-24 21:13:00,
2013-06-24 17:15:00,82.0,73.1,30.10,North,359,0.0,3.7,75,0.00,,SKC,0.00,VWS V14.01,2013-06-24 21:15:00,
2013-06-24 17:17:00,82.0,73.2,30.11,North,359,0.0,3.7,75,0.00,,SKC,0.00,VWS V14.01,2013-06-24 21:17:00,
2013-06-24 17:18:00,82.1,73.1,30.11,North,359,0.0,3.7,74,0.00,,SKC,0.00,VWS V14.01,2013-06-24 21:18:00,
2013-06-24 17:19:00,82.0,72.6,30.10,North,359,0.0,3.7,73,0.00,,SKC,0.00,VWS V14.01,2013-06-24 21:19:00,
2013-06-24 17:20:00,81.8,72.6,30.10,North,359,0.0,3.7,74,0.00,,SKC,0.00,VWS V14.01,2013-06-24 21:20:00,
2013-06-24 17:22:00,81.7,72.9,30.10,North,359,0.0,3.7,75,0.00,,SKC,0.00,VWS V14.01,2013-06-24 21:22:00,
2013-06-24 17:23:00,81.5,72.5,30.10,North,359,0.0,3.7,74,0.00,,SKC,0.00,VWS V14.01,2013-06-24 21:23:00,
2013-06-24 17:24:00,81.6,72.8,30.10,North,359,0.0,3.7,75,0.00,,SKC,0.00,VWS V14.01,2013-06-24 21:24:00,
2013-06-24 17:26:00,81.4,72.7,30.10,North,359,0.0,3.7,75,0.00,,SKC,0.00,VWS V14.01,2013-06-24 21:26:00,
2013-06-24 17:27:00,81.4,73.1,30.10,North,359,0.0,3.7,76,0.00,,SKC,0.00,VWS V14.01,2013-06-24 21:27:00,
2013-06-24 17:28:00,81.5,73.1,30.10,North,359,0.0,3.7,76,0.00,,SKC,0.00,VWS V14.01,2013-06-24 21:28:00,
2013-06-24 17:30:00,81.7,73.3,30.10,North,359,0.0,3.7,76,0.00,,SKC,0.00,VWS V14.01,2013-06-24 21:30:00,
2013-06-24 17:31:00,81.8,73.4,30.10,North,359,0.0,3.7,76,0.00,,SKC,0.00,VWS V14.01,2013-06-24 21:31:00,
2013-06-24 17:32:00,82.2,73.6,30.10,North,359,0.0,3.7,75,0.00,,SKC,0.00,VWS V14.01,2013-06-24 21:32:00,
2013-06-24 17:33:00,82.3,73.6,30.10,North,359,0.0,3.7,75,0.00,,SKC,0.00,VWS V14.01,2013-06-24 21:33:00,
2013-06-24 17:35:00,82.4,73.0,30.10,North,359,0.0,3.7,74,0.00,,SKC,0.00,VWS V14.01,2013-06-24 21:35:00,
2013-06-24 17:36:00,82.4,73.1,30.10,North,359,0.0,3.7,74,0.00,,SKC,0.00,VWS V14.01,2013-06-24 21:36:00,
2013-06-24 17:37:00,82.5,72.4,30.09,North,359,0.0,3.7,73,0.00,,SKC,0.00,VWS V14.01,2013-06-24 21:37:00,
2013-06-24 17:38:00,82.4,72.2,30.09,North,359,0.0,3.7,71,0.00,,SKC,0.00,VWS V14.01,2013-06-24 21:38:00,
2013-06-24 17:40:00,82.1,72.8,30.10,North,359,0.0,3.7,74,0.00,,SKC,0.00,VWS V14.01,2013-06-24 21:40:00,
2013-06-24 17:42:00,82.0,72.9,30.09,North,359,0.0,3.7,74,0.00,,SKC,0.00,VWS V14.01,2013-06-24 21:42:00,
2013-06-24 17:43:00,82.1,73.2,30.09,North,359,0.0,3.7,75,0.00,,SKC,0.00,VWS V14.01,2013-06-24 21:43:00,
2013-06-24 17:45:00,82.2,73.2,30.09,North,359,0.0,3.7,74,0.00,,SKC,0.00,VWS V14.01,2013-06-24 21:45:00,
2013-06-24 17:47:00,82.0,72.2,30.09,North,359,0.0,3.7,72,0.00,,SKC,0.00,VWS V14.01,2013-06-24 21:47:00,
2013-06-24 17:48:00,82.0,72.2,30.09,North,359,0.0,3.7,72,0.00,,SKC,0.00,VWS V14.01,2013-06-24 21:48:00,
2013-06-24 17:49:00,81.7,72.2,30.09,North,359,0.0,3.7,73,0.00,,SKC,0.00,VWS V14.01,2013-06-24 21:49:00,
2013-06-24 17:50:00,81.6,72.2,30.09,North,359,0.0,3.7,73,0.00,,SKC,0.00,VWS V14.01,2013-06-24 21:50:00,
2013-06-24 17:52:00,81.6,72.3,30.09,North,359,0.0,3.7,73,0.00,,SKC,0.00,VWS V14.01,2013-06-24 21:52:00,
2013-06-24 17:53:00,81.5,72.3,30.09,North,359,0.0,3.7,74,0.00,,SKC,0.00,VWS V14.01,2013-06-24 21:53:00,
2013-06-24 17:55:00,81.6,72.3,30.09,North,359,0.0,3.7,73,0.00,,SKC,0.00,VWS V14.01,2013-06-24 21:55:00,
2013-06-24 17:58:00,81.5,72.9,30.09,North,359,0.0,3.7,75,0.00,,SKC,0.00,VWS V14.01,2013-06-24 21:58:00,
2013-06-24 18:00:00,81.5,73.0,30.09,North,359,0.0,3.7,75,0.00,,SKC,0.00,VWS V14.01,2013-06-24 22:00:00,
2013-06-24 18:01:00,81.5,72.8,30.09,North,359,0.0,3.7,75,0.00,,SKC,0.00,VWS V14.01,2013-06-24 22:01:00,
2013-06-24 18:03:00,81.4,72.7,30.09,North,359,0.0,3.7,75,0.00,,SKC,0.00,VWS V14.01,2013-06-24 22:03:00,
2013-06-24 18:06:00,81.3,71.8,30.08,North,359,0.0,3.7,73,0.00,,SKC,0.00,VWS V14.01,2013-06-24 22:06:00,
2013-06-24 18:08:00,81.5,72.9,30.08,North,359,0.0,3.7,75,0.00,,SKC,0.00,VWS V14.01,2013-06-24 22:08:00,
2013-06-24 18:09:00,81.4,72.9,30.08,North,359,0.0,3.7,76,0.00,,SKC,0.00,VWS V14.01,2013-06-24 22:09:00,
2013-06-24 18:11:00,81.5,72.5,30.08,North,359,0.0,3.7,74,0.00,,SKC,0.00,VWS V14.01,2013-06-24 22:11:00,
2013-06-24 18:13:00,81.4,72.6,30.08,North,359,0.0,3.7,75,0.00,,SKC,0.00,VWS V14.01,2013-06-24 22:13:00,
2013-06-24 18:14:00,81.4,72.9,30.08,North,359,0.0,3.7,76,0.00,,SKC,0.00,VWS V14.01,2013-06-24 22:14:00,
2013-06-24 18:16:00,81.2,72.4,30.08,North,359,0.0,3.7,75,0.00,,SKC,0.00,VWS V14.01,2013-06-24 22:16:00,
2013-06-24 18:18:00,81.2,72.8,30.08,North,359,0.0,3.7,76,0.00,,SKC,0.00,VWS V14.01,2013-06-24 22:18:00,
2013-06-24 18:19:00,81.2,72.9,30.07,North,359,0.0,3.7,76,0.00,,SKC,0.00,VWS V14.01,2013-06-24 22:19:00,
2013-06-24 18:21:00,81.3,72.9,30.08,North,359,0.0,3.7,76,0.00,,SKC,0.00,VWS V14.01,2013-06-24 22:21:00,
2013-06-24 18:24:00,81.5,73.3,30.07,North,359,0.0,3.7,76,0.00,,SKC,0.00,VWS V14.01,2013-06-24 22:24:00,
2013-06-24 18:27:00,81.4,72.6,30.07,North,359,0.0,3.7,75,0.00,,SKC,0.00,VWS V14.01,2013-06-24 22:27:00,
2013-06-24 18:29:00,81.2,72.9,30.08,North,359,0.0,3.7,76,0.00,,SKC,0.00,VWS V14.01,2013-06-24 22:29:00,
2013-06-24 18:30:00,81.3,73.1,30.08,North,359,0.0,3.7,76,0.00,,SKC,0.00,VWS V14.01,2013-06-24 22:30:00,
2013-06-24 18:32:00,81.2,73.3,30.07,North,359,0.0,3.7,77,0.00,,SKC,0.00,VWS V14.01,2013-06-24 22:32:00,
2013-06-24 18:34:00,81.3,73.6,30.07,North,359,0.0,3.7,78,0.00,,SKC,0.00,VWS V14.01,2013-06-24 22:34:00,
2013-06-24 18:35:00,81.3,73.6,30.07,North,359,0.0,3.7,78,0.00,,SKC,0.00,VWS V14.01,2013-06-24 22:35:00,
2013-06-24 18:37:00,81.2,73.6,30.07,North,359,0.0,3.7,78,0.00,,SKC,0.00,VWS V14.01,2013-06-24 22:37:00,
2013-06-24 18:38:00,81.2,73.8,30.07,North,359,0.0,3.7,78,0.00,,SKC,0.00,VWS V14.01,2013-06-24 22:38:00,
2013-06-24 18:40:00,81.1,73.9,30.08,North,359,0.0,3.7,79,0.00,,SKC,0.00,VWS V14.01,2013-06-24 22:40:00,
2013-06-24 18:43:00,81.1,73.5,30.08,North,359,0.0,3.7,78,0.00,,SKC,0.00,VWS V14.01,2013-06-24 22:43:00,
2013-06-24 18:45:00,81.0,73.5,30.08,North,359,0.0,3.7,78,0.00,,SKC,0.00,VWS V14.01,2013-06-24 22:45:00,
2013-06-24 18:48:00,81.0,73.4,30.07,North,359,0.0,3.7,78,0.00,,SKC,0.00,VWS V14.01,2013-06-24 22:48:00,
2013-06-24 18:50:00,81.0,73.6,30.08,North,359,0.0,3.7,78,0.00,,SKC,0.00,VWS V14.01,2013-06-24 22:50:00,
2013-06-24 18:51:00,81.1,74.0,30.08,North,359,0.0,3.7,79,0.00,,SKC,0.00,VWS V14.01,2013-06-24 22:51:00,
2013-06-24 18:54:00,80.9,74.0,30.07,North,359,0.0,3.7,80,0.00,,SKC,0.00,VWS V14.01,2013-06-24 22:54:00,
2013-06-24 18:55:00,80.8,74.1,30.07,North,359,0.0,3.7,80,0.00,,SKC,0.00,VWS V14.01,2013-06-24 22:55:00,
2013-06-24 18:56:00,80.8,74.0,30.07,North,359,0.0,3.7,80,0.00,,SKC,0.00,VWS V14.01,2013-06-24 22:56:00,
2013-06-24 18:59:00,80.6,73.6,30.07,North,359,0.0,3.7,79,0.00,,SKC,0.00,VWS V14.01,2013-06-24 22:59:00,
2013-06-24 19:01:00,80.6,73.9,30.07,North,359,0.0,3.7,80,0.00,,SKC,0.00,VWS V14.01,2013-06-24 23:01:00,
2013-06-24 19:04:00,80.7,74.2,30.07,North,359,0.0,3.7,81,0.00,,SKC,0.00,VWS V14.01,2013-06-24 23:04:00,
2013-06-24 19:06:00,80.6,74.2,30.07,North,359,0.0,3.7,81,0.00,,SKC,0.00,VWS V14.01,2013-06-24 23:06:00,
2013-06-24 19:08:00,80.7,74.4,30.08,North,359,0.0,3.7,81,0.00,,SKC,0.00,VWS V14.01,2013-06-24 23:08:00,
2013-06-24 19:11:00,80.7,74.6,30.08,North,359,0.0,3.7,82,0.00,,SKC,0.00,VWS V14.01,2013-06-24 23:11:00,
2013-06-24 19:12:00,80.7,74.7,30.08,North,359,0.0,3.7,82,0.00,,SKC,0.00,VWS V14.01,2013-06-24 23:12:00,
2013-06-24 19:13:00,80.7,74.7,30.08,North,359,0.0,3.7,82,0.00,,SKC,0.00,VWS V14.01,2013-06-24 23:13:00,
2013-06-24 19:16:00,80.5,74.6,30.08,North,359,0.0,3.7,82,0.00,,SKC,0.00,VWS V14.01,2013-06-24 23:16:00,
2013-06-24 19:17:00,80.6,75.1,30.08,North,359,0.0,3.7,83,0.00,,SKC,0.00,VWS V14.01,2013-06-24 23:17:00,
2013-06-24 19:18:00,80.5,75.1,30.08,North,359,0.0,3.7,84,0.00,,SKC,0.00,VWS V14.01,2013-06-24 23:18:00,
2013-06-24 19:21:00,80.4,74.7,30.08,North,359,0.0,3.7,83,0.00,,SKC,0.00,VWS V14.01,2013-06-24 23:21:00,
2013-06-24 19:22:00,80.4,74.4,30.08,North,359,0.0,3.7,82,0.00,,SKC,0.00,VWS V14.01,2013-06-24 23:22:00,
2013-06-24 19:23:00,80.3,74.1,30.08,North,359,0.0,3.7,82,0.00,,SKC,0.00,VWS V14.01,2013-06-24 23:23:00,
2013-06-24 19:26:00,80.3,74.5,30.08,North,359,0.0,3.7,83,0.00,,SKC,0.00,VWS V14.01,2013-06-24 23:26:00,
2013-06-24 19:27:00,80.3,74.4,30.08,North,359,0.0,3.7,82,0.00,,SKC,0.00,VWS V14.01,2013-06-24 23:27:00,
2013-06-24 19:28:00,80.4,74.7,30.08,North,359,0.0,3.7,83,0.00,,SKC,0.00,VWS V14.01,2013-06-24 23:28:00,
2013-06-24 19:31:00,80.6,74.8,30.08,North,359,0.0,3.7,82,0.00,,SKC,0.00,VWS V14.01,2013-06-24 23:31:00,
2013-06-24 19:32:00,80.6,74.7,30.08,North,359,0.0,3.7,82,0.00,,SKC,0.00,VWS V14.01,2013-06-24 23:32:00,
2013-06-24 19:33:00,80.6,74.3,30.08,North,359,0.0,3.7,82,0.00,,SKC,0.00,VWS V14.01,2013-06-24 23:33:00,
2013-06-24 19:34:00,80.6,74.4,30.08,North,359,0.0,3.7,81,0.00,,SKC,0.00,VWS V14.01,2013-06-24 23:34:00,
2013-06-24 19:37:00,80.5,74.5,30.08,North,359,0.0,3.7,82,0.00,,SKC,0.00,VWS V14.01,2013-06-24 23:37:00,
2013-06-24 19:38:00,80.4,74.4,30.08,North,359,0.0,3.7,82,0.00,,SKC,0.00,VWS V14.01,2013-06-24 23:38:00,
2013-06-24 19:39:00,80.3,73.7,30.08,North,359,0.0,3.7,80,0.00,,SKC,0.00,VWS V14.01,2013-06-24 23:39:00,
2013-06-24 19:42:00,80.5,74.0,30.08,North,359,0.0,3.7,81,0.00,,SKC,0.00,VWS V14.01,2013-06-24 23:42:00,
2013-06-24 19:43:00,80.5,74.0,30.08,North,359,0.0,3.7,81,0.00,,SKC,0.00,VWS V14.01,2013-06-24 23:43:00,
2013-06-24 19:44:00,80.4,74.0,30.08,North,359,0.0,3.7,81,0.00,,SKC,0.00,VWS V14.01,2013-06-24 23:44:00,
2013-06-24 19:45:00,80.4,74.2,30.08,North,359,0.0,3.7,81,0.00,,SKC,0.00,VWS V14.01,2013-06-24 23:45:00,
2013-06-24 19:47:00,80.3,74.4,30.08,North,359,0.0,3.7,82,0.00,,SKC,0.00,VWS V14.01,2013-06-24 23:47:00,
2013-06-24 19:48:00,80.5,74.7,30.08,North,359,0.0,3.7,82,0.00,,SKC,0.00,VWS V14.01,2013-06-24 23:48:00,
2013-06-24 19:49:00,80.5,74.8,30.08,North,359,0.0,3.7,83,0.00,,SKC,0.00,VWS V14.01,2013-06-24 23:49:00,
2013-06-24 19:50:00,80.5,74.8,30.08,North,359,0.0,3.7,83,0.00,,SKC,0.00,VWS V14.01,2013-06-24 23:50:00,
2013-06-24 19:53:00,80.5,75.1,30.08,North,359,0.0,3.7,84,0.00,,SKC,0.00,VWS V14.01,2013-06-24 23:53:00,
2013-06-24 19:55:00,80.5,75.3,30.08,North,359,0.0,3.7,84,0.00,,SKC,0.00,VWS V14.01,2013-06-24 23:55:00,
2013-06-24 19:58:00,80.5,75.4,30.08,North,359,0.0,3.7,84,0.00,,SKC,0.00,VWS V14.01,2013-06-24 23:58:00,
2013-06-24 20:00:00,80.3,75.4,30.09,North,359,0.0,3.7,85,0.00,,SKC,0.00,VWS V14.01,2013-06-25 00:00:00,
2013-06-24 20:04:00,80.4,75.3,30.09,North,359,0.0,3.7,84,0.00,,SKC,0.00,VWS V14.01,2013-06-25 00:04:00,
2013-06-24 20:05:00,80.3,74.9,30.09,North,359,0.0,3.7,84,0.00,,SKC,0.00,VWS V14.01,2013-06-25 00:05:00,
2013-06-24 20:06:00,80.3,74.8,30.09,North,359,0.0,3.7,83,0.00,,SKC,0.00,VWS V14.01,2013-06-25 00:06:00,
2013-06-24 20:09:00,80.3,75.0,30.09,North,359,0.0,3.7,84,0.00,,SKC,0.00,VWS V14.01,2013-06-25 00:09:00,
2013-06-24 20:11:00,80.3,75.0,30.09,North,359,0.0,3.7,84,0.00,,SKC,0.00,VWS V14.01,2013-06-25 00:11:00,
2013-06-24 20:14:00,80.3,75.4,30.08,North,359,0.0,3.7,85,0.00,,SKC,0.00,VWS V14.01,2013-06-25 00:14:00,
2013-06-24 20:16:00,80.3,75.5,30.08,North,359,0.0,3.7,85,0.00,,SKC,0.00,VWS V14.01,2013-06-25 00:16:00,
2013-06-24 20:20:00,80.2,75.1,30.08,North,359,0.0,3.7,84,0.00,,SKC,0.00,VWS V14.01,2013-06-25 00:20:00,
2013-06-24 20:22:00,80.3,74.7,30.08,North,359,0.0,3.7,83,0.00,,SKC,0.00,VWS V14.01,2013-06-25 00:22:00,
2013-06-24 20:25:00,80.2,74.3,30.08,North,359,0.0,3.7,82,0.00,,SKC,0.00,VWS V14.01,2013-06-25 00:25:00,
2013-06-24 20:27:00,80.2,74.5,30.08,North,359,0.0,3.7,83,0.00,,SKC,0.00,VWS V14.01,2013-06-25 00:27:00,
2013-06-24 20:30:00,80.2,74.8,30.08,North,359,0.0,3.7,84,0.00,,SKC,0.00,VWS V14.01,2013-06-25 00:30:00,
2013-06-24 20:32:00,80.2,75.2,30.08,North,359,0.0,3.7,85,0.00,,SKC,0.00,VWS V14.01,2013-06-25 00:32:00,
2013-06-24 20:33:00,80.2,75.6,30.08,North,359,0.0,3.7,86,0.00,,SKC,0.00,VWS V14.01,2013-06-25 00:33:00,
2013-06-24 20:35:00,80.3,76.0,30.08,North,359,0.0,3.7,87,0.00,,SKC,0.00,VWS V14.01,2013-06-25 00:35:00,
2013-06-24 20:37:00,80.1,76.2,30.08,North,359,0.0,3.7,88,0.00,,SKC,0.00,VWS V14.01,2013-06-25 00:37:00,
2013-06-24 20:38:00,80.2,76.4,30.08,North,359,0.0,3.7,88,0.00,,SKC,0.00,VWS V14.01,2013-06-25 00:38:00,
2013-06-24 20:41:00,80.1,76.1,30.08,North,359,0.0,3.7,88,0.00,,SKC,0.00,VWS V14.01,2013-06-25 00:41:00,
2013-06-24 20:42:00,80.1,76.0,30.07,North,359,0.0,3.7,87,0.00,,SKC,0.00,VWS V14.01,2013-06-25 00:42:00,
2013-06-24 20:44:00,80.0,75.9,30.08,North,359,0.0,3.7,87,0.00,,SKC,0.00,VWS V14.01,2013-06-25 00:44:00,
2013-06-24 20:47:00,80.0,75.8,30.08,North,359,0.0,3.7,87,0.00,,SKC,0.00,VWS V14.01,2013-06-25 00:47:00,
2013-06-24 20:48:00,80.1,76.0,30.08,North,359,0.0,3.7,87,0.00,,SKC,0.00,VWS V14.01,2013-06-25 00:48:00,
2013-06-24 20:49:00,80.0,75.8,30.08,North,359,0.0,3.7,87,0.00,,SKC,0.00,VWS V14.01,2013-06-25 00:49:00,
2013-06-24 20:52:00,80.0,75.7,30.08,North,359,0.0,3.7,87,0.00,,SKC,0.00,VWS V14.01,2013-06-25 00:52:00,
2013-06-24 20:53:00,80.0,75.6,30.08,North,359,0.0,3.7,86,0.00,,SKC,0.00,VWS V14.01,2013-06-25 00:53:00,
2013-06-24 20:54:00,80.0,75.7,30.08,North,359,0.0,3.7,87,0.00,,SKC,0.00,VWS V14.01,2013-06-25 00:54:00,
2013-06-24 20:55:00,79.9,75.8,30.08,North,359,0.0,3.7,87,0.00,,SKC,0.00,VWS V14.01,2013-06-25 00:55:00,
2013-06-24 20:57:00,80.0,76.0,30.08,North,359,0.0,3.7,88,0.00,,SKC,0.00,VWS V14.01,2013-06-25 00:57:00,
2013-06-24 20:58:00,80.0,75.9,30.08,North,359,0.0,3.7,87,0.00,,SKC,0.00,VWS V14.01,2013-06-25 00:58:00,
2013-06-24 20:59:00,80.0,75.6,30.08,North,359,0.0,3.7,87,0.00,,SKC,0.00,VWS V14.01,2013-06-25 00:59:00,
2013-06-24 21:00:00,79.9,75.6,30.08,North,359,0.0,3.7,87,0.00,,SKC,0.00,VWS V14.01,2013-06-25 01:00:00,
2013-06-24 21:02:00,80.0,75.6,30.08,North,359,0.0,3.7,86,0.00,,SKC,0.00,VWS V14.01,2013-06-25 01:02:00,
2013-06-24 21:03:00,79.9,75.3,30.08,North,359,0.0,3.7,86,0.00,,SKC,0.00,VWS V14.01,2013-06-25 01:03:00,
2013-06-24 21:04:00,79.9,75.7,30.08,North,359,0.0,3.7,87,0.00,,SKC,0.00,VWS V14.01,2013-06-25 01:04:00,
2013-06-24 21:05:00,79.9,76.0,30.08,North,359,0.0,3.7,88,0.00,,SKC,0.00,VWS V14.01,2013-06-25 01:05:00,
2013-06-24 21:08:00,80.0,76.9,30.08,North,359,0.0,3.7,90,0.00,,SKC,0.00,VWS V14.01,2013-06-25 01:08:00,
2013-06-24 21:09:00,79.9,77.0,30.08,North,359,0.0,3.7,91,0.00,,SKC,0.00,VWS V14.01,2013-06-25 01:09:00,
2013-06-24 21:11:00,79.9,77.3,30.08,North,359,0.0,3.7,92,0.00,,SKC,0.00,VWS V14.01,2013-06-25 01:11:00,
2013-06-24 21:13:00,79.9,77.4,30.09,North,359,0.0,3.7,92,0.00,,SKC,0.00,VWS V14.01,2013-06-25 01:13:00,
2013-06-24 21:14:00,79.9,77.4,30.09,North,359,0.0,3.7,92,0.00,,SKC,0.00,VWS V14.01,2013-06-25 01:14:00,
2013-06-24 21:15:00,79.9,77.4,30.08,North,359,0.0,3.7,92,0.00,,SKC,0.00,VWS V14.01,2013-06-25 01:15:00,
2013-06-24 21:16:00,79.9,77.6,30.09,North,359,0.0,3.7,93,0.00,,SKC,0.00,VWS V14.01,2013-06-25 01:16:00,
2013-06-24 21:19:00,79.8,77.9,30.09,North,359,0.0,3.7,94,0.00,,SKC,0.00,VWS V14.01,2013-06-25 01:19:00,
2013-06-24 21:20:00,79.9,78.1,30.09,North,359,0.0,3.7,94,0.00,,SKC,0.00,VWS V14.01,2013-06-25 01:20:00,
2013-06-24 21:21:00,79.8,78.0,30.09,North,359,0.0,3.7,94,0.00,,SKC,0.00,VWS V14.01,2013-06-25 01:21:00,
2013-06-24 21:24:00,79.8,78.1,30.09,North,359,0.0,3.7,95,0.00,,SKC,0.00,VWS V14.01,2013-06-25 01:24:00,
2013-06-24 21:26:00,79.8,78.1,30.09,North,359,0.0,3.7,95,0.00,,SKC,0.00,VWS V14.01,2013-06-25 01:26:00,
2013-06-24 21:29:00,79.8,78.1,30.09,North,359,0.0,3.7,94,0.00,,SKC,0.00,VWS V14.01,2013-06-25 01:29:00,
2013-06-24 21:30:00,79.8,78.1,30.09,North,359,0.0,3.7,95,0.00,,SKC,0.00,VWS V14.01,2013-06-25 01:30:00,
2013-06-24 21:31:00,79.8,78.1,30.09,North,359,0.0,3.7,95,0.00,,SKC,0.00,VWS V14.01,2013-06-25 01:31:00,
2013-06-24 21:32:00,79.9,78.1,30.09,North,359,0.0,3.7,95,0.00,,SKC,0.00,VWS V14.01,2013-06-25 01:32:00,
2013-06-24 21:34:00,79.8,78.2,30.09,North,359,0.0,3.7,95,0.00,,SKC,0.00,VWS V14.01,2013-06-25 01:34:00,
2013-06-24 21:35:00,79.8,78.2,30.09,North,359,0.0,3.7,95,0.00,,SKC,0.00,VWS V14.01,2013-06-25 01:35:00,
2013-06-24 21:37:00,79.9,78.4,30.09,North,359,0.0,3.7,95,0.00,,SKC,0.00,VWS V14.01,2013-06-25 01:37:00,
2013-06-24 21:38:00,79.9,78.3,30.09,North,359,0.0,3.7,95,0.00,,SKC,0.00,VWS V14.01,2013-06-25 01:38:00,
2013-06-24 21:39:00,79.9,78.4,30.09,North,359,0.0,3.7,95,0.00,,SKC,0.00,VWS V14.01,2013-06-25 01:39:00,
2013-06-24 21:40:00,79.8,78.2,30.09,North,359,0.0,3.7,95,0.00,,SKC,0.00,VWS V14.01,2013-06-25 01:40:00,
2013-06-24 21:43:00,79.8,78.3,30.09,North,359,0.0,3.7,95,0.00,,SKC,0.00,VWS V14.01,2013-06-25 01:43:00,
2013-06-24 21:44:00,79.8,78.2,30.09,North,359,0.0,3.7,95,0.00,,SKC,0.00,VWS V14.01,2013-06-25 01:44:00,
2013-06-24 21:45:00,79.8,78.2,30.09,North,359,0.0,3.7,95,0.00,,SKC,0.00,VWS V14.01,2013-06-25 01:45:00,
2013-06-24 21:48:00,79.7,77.9,30.09,North,359,0.0,3.7,94,0.00,,SKC,0.00,VWS V14.01,2013-06-25 01:48:00,
2013-06-24 21:49:00,79.7,77.9,30.10,North,359,0.0,3.7,94,0.00,,SKC,0.00,VWS V14.01,2013-06-25 01:49:00,
2013-06-24 21:50:00,79.7,77.9,30.10,North,359,0.0,3.7,94,0.00,,SKC,0.00,VWS V14.01,2013-06-25 01:50:00,
2013-06-24 21:51:00,79.7,77.9,30.09,North,359,0.0,3.7,94,0.00,,SKC,0.00,VWS V14.01,2013-06-25 01:51:00,
2013-06-24 21:53:00,79.7,77.7,30.10,North,359,0.0,3.7,94,0.00,,SKC,0.00,VWS V14.01,2013-06-25 01:53:00,
2013-06-24 21:54:00,79.7,77.7,30.10,North,359,0.0,3.7,94,0.00,,SKC,0.00,VWS V14.01,2013-06-25 01:54:00,
2013-06-24 21:55:00,79.7,77.7,30.10,North,359,0.0,3.7,94,0.00,,SKC,0.00,VWS V14.01,2013-06-25 01:55:00,
2013-06-24 21:56:00,79.7,77.8,30.10,North,359,0.0,3.7,94,0.00,,SKC,0.00,VWS V14.01,2013-06-25 01:56:00,
2013-06-24 21:58:00,79.7,77.8,30.10,North,359,0.0,3.7,94,0.00,,SKC,0.00,VWS V14.01,2013-06-25 01:58:00,
2013-06-24 22:00:00,79.8,78.2,30.10,North,359,0.0,3.7,95,0.00,,SKC,0.00,VWS V14.01,2013-06-25 02:00:00,
2013-06-24 22:01:00,79.7,77.9,30.10,North,359,0.0,3.7,94,0.00,,SKC,0.00,VWS V14.01,2013-06-25 02:01:00,
2013-06-24 22:03:00,79.7,77.8,30.10,North,359,0.0,3.7,94,0.00,,SKC,0.00,VWS V14.01,2013-06-25 02:03:00,
2013-06-24 22:05:00,79.8,77.8,30.10,North,359,0.0,3.7,94,0.00,,SKC,0.00,VWS V14.01,2013-06-25 02:05:00,
2013-06-24 22:06:00,79.7,77.8,30.10,North,359,0.0,3.7,94,0.00,,SKC,0.00,VWS V14.01,2013-06-25 02:06:00,
2013-06-24 22:08:00,79.5,77.8,30.10,North,359,0.0,3.7,94,0.00,,SKC,0.00,VWS V14.01,2013-06-25 02:08:00,
2013-06-24 22:11:00,79.8,78.0,30.10,North,359,0.0,3.7,94,0.00,,SKC,0.00,VWS V14.01,2013-06-25 02:11:00,
2013-06-24 22:12:00,79.7,77.8,30.10,North,359,0.0,3.7,94,0.00,,SKC,0.00,VWS V14.01,2013-06-25 02:12:00,
2013-06-24 22:13:00,79.7,77.5,30.10,North,359,0.0,3.7,93,0.00,,SKC,0.00,VWS V14.01,2013-06-25 02:13:00,
2013-06-24 22:16:00,79.5,77.4,30.10,North,359,0.0,3.7,93,0.00,,SKC,0.00,VWS V14.01,2013-06-25 02:16:00,
2013-06-24 22:17:00,79.5,77.4,30.10,North,359,0.0,3.7,93,0.00,,SKC,0.00,VWS V14.01,2013-06-25 02:17:00,
2013-06-24 22:18:00,79.7,77.6,30.10,North,359,0.0,3.7,93,0.00,,SKC,0.00,VWS V14.01,2013-06-25 02:18:00,
2013-06-24 22:21:00,79.5,77.2,30.10,North,359,0.0,3.7,93,0.00,,SKC,0.00,VWS V14.01,2013-06-25 02:21:00,
2013-06-24 22:22:00,79.4,77.1,30.10,North,359,0.0,3.7,93,0.00,,SKC,0.00,VWS V14.01,2013-06-25 02:22:00,
2013-06-24 22:23:00,79.4,77.0,30.10,North,359,0.0,3.7,92,0.00,,SKC,0.00,VWS V14.01,2013-06-25 02:23:00,
2013-06-24 22:26:00,79.4,76.9,30.10,North,359,0.0,3.7,92,0.00,,SKC,0.00,VWS V14.01,2013-06-25 02:26:00,
2013-06-24 22:27:00,79.3,76.8,30.10,North,359,0.0,3.7,92,0.00,,SKC,0.00,VWS V14.01,2013-06-25 02:27:00,
2013-06-24 22:28:00,79.4,76.8,30.10,North,359,0.0,3.7,92,0.00,,SKC,0.00,VWS V14.01,2013-06-25 02:28:00,
2013-06-24 22:32:00,79.3,76.7,30.10,North,359,0.0,3.7,92,0.00,,SKC,0.00,VWS V14.01,2013-06-25 02:32:00,
2013-06-24 22:33:00,79.2,76.7,30.10,North,359,0.0,3.7,92,0.00,,SKC,0.00,VWS V14.01,2013-06-25 02:33:00,
2013-06-24 22:34:00,79.1,76.5,30.10,North,359,0.0,3.7,92,0.00,,SKC,0.00,VWS V14.01,2013-06-25 02:34:00,
2013-06-24 22:37:00,79.2,76.6,30.11,North,359,0.0,3.7,92,0.00,,SKC,0.00,VWS V14.01,2013-06-25 02:37:00,
2013-06-24 22:38:00,79.2,76.6,30.11,North,359,0.0,3.7,92,0.00,,SKC,0.00,VWS V14.01,2013-06-25 02:38:00,
2013-06-24 22:40:00,79.0,76.0,30.11,North,359,0.0,3.7,91,0.00,,SKC,0.00,VWS V14.01,2013-06-25 02:40:00,
2013-06-24 22:42:00,79.0,75.7,30.11,North,359,0.0,3.7,90,0.00,,SKC,0.00,VWS V14.01,2013-06-25 02:42:00,
2013-06-24 22:43:00,79.0,75.7,30.11,North,359,0.0,3.7,90,0.00,,SKC,0.00,VWS V14.01,2013-06-25 02:43:00,
2013-06-24 22:44:00,79.3,76.1,30.11,North,359,0.0,3.7,90,0.00,,SKC,0.00,VWS V14.01,2013-06-25 02:44:00,
2013-06-24 22:45:00,79.2,76.1,30.11,North,359,0.0,3.7,90,0.00,,SKC,0.00,VWS V14.01,2013-06-25 02:45:00,
2013-06-24 22:48:00,79.4,76.5,30.11,North,359,0.0,3.7,91,0.00,,SKC,0.00,VWS V14.01,2013-06-25 02:48:00,
2013-06-24 22:49:00,79.4,76.6,30.11,North,359,0.0,3.7,91,0.00,,SKC,0.00,VWS V14.01,2013-06-25 02:49:00,
2013-06-24 22:52:00,79.5,76.8,30.11,North,359,0.0,3.7,91,0.00,,SKC,0.00,VWS V14.01,2013-06-25 02:52:00,
2013-06-24 22:53:00,79.7,76.9,30.11,North,359,0.0,3.7,91,0.00,,SKC,0.00,VWS V14.01,2013-06-25 02:53:00,
2013-06-24 22:54:00,79.7,76.8,30.12,North,359,0.0,3.7,91,0.00,,SKC,0.00,VWS V14.01,2013-06-25 02:54:00,
2013-06-24 22:57:00,79.5,76.6,30.12,North,359,0.0,3.7,91,0.00,,SKC,0.00,VWS V14.01,2013-06-25 02:57:00,
2013-06-24 22:58:00,79.5,76.6,30.12,North,359,0.0,3.7,91,0.00,,SKC,0.00,VWS V14.01,2013-06-25 02:58:00,
2013-06-24 23:00:00,79.7,76.6,30.12,North,359,0.0,3.7,90,0.00,,SKC,0.00,VWS V14.01,2013-06-25 03:00:00,
2013-06-24 23:03:00,79.7,76.5,30.12,North,359,0.0,3.7,90,0.00,,SKC,0.00,VWS V14.01,2013-06-25 03:03:00,
2013-06-24 23:04:00,79.7,76.5,30.12,North,359,0.0,3.7,90,0.00,,SKC,0.00,VWS V14.01,2013-06-25 03:04:00,
2013-06-24 23:05:00,79.8,76.6,30.11,North,359,0.0,3.7,90,0.00,,SKC,0.00,VWS V14.01,2013-06-25 03:05:00,
2013-06-24 23:06:00,79.3,77.6,30.13,North,359,0.0,3.7,95,0.00,,SKC,0.00,VWS V14.01,2013-06-25 03:06:00,
2013-06-24 23:07:00,79.2,77.6,30.12,North,359,0.0,3.7,95,0.00,,SKC,0.00,VWS V14.01,2013-06-25 03:07:00,
2013-06-24 23:08:00,79.5,76.3,30.12,North,359,0.0,3.7,90,0.00,,SKC,0.00,VWS V14.01,2013-06-25 03:08:00,
2013-06-24 23:09:00,79.5,76.0,30.12,North,359,0.0,3.7,89,0.00,,SKC,0.00,VWS V14.01,2013-06-25 03:09:00,
2013-06-24 23:10:00,79.4,75.9,30.12,North,359,0.0,3.7,89,0.00,,SKC,0.00,VWS V14.01,2013-06-25 03:10:00,
2013-06-24 23:13:00,79.7,76.2,30.12,North,359,0.0,3.7,89,0.00,,SKC,0.00,VWS V14.01,2013-06-25 03:13:00,
2013-06-24 23:14:00,79.8,76.7,30.12,North,359,0.0,3.7,90,0.00,,SKC,0.00,VWS V14.01,2013-06-25 03:14:00,
2013-06-24 23:15:00,79.7,76.6,30.12,North,359,0.0,3.7,90,0.00,,SKC,0.00,VWS V14.01,2013-06-25 03:15:00,
2013-06-24 23:16:00,79.7,76.6,30.12,North,359,0.0,3.7,90,0.00,,SKC,0.00,VWS V14.01,2013-06-25 03:16:00,
2013-06-24 23:20:00,79.7,77.0,30.12,North,359,0.0,3.7,91,0.00,,SKC,0.00,VWS V14.01,2013-06-25 03:20:00,
2013-06-24 23:21:00,79.7,77.0,30.12,North,359,0.0,3.7,91,0.00,,SKC,0.00,VWS V14.01,2013-06-25 03:21:00,
2013-06-24 23:22:00,79.7,77.0,30.12,North,359,0.0,3.7,92,0.00,,SKC,0.00,VWS V14.01,2013-06-25 03:22:00,
2013-06-24 23:25:00,79.4,76.8,30.12,North,359,0.0,3.7,92,0.00,,SKC,0.00,VWS V14.01,2013-06-25 03:25:00,
2013-06-24 23:26:00,79.5,76.9,30.12,North,359,0.0,3.7,92,0.00,,SKC,0.00,VWS V14.01,2013-06-25 03:26:00,
2013-06-24 23:28:00,79.5,76.9,30.12,North,359,0.0,3.7,92,0.00,,SKC,0.00,VWS V14.01,2013-06-25 03:28:00,
2013-06-24 23:30:00,79.5,77.2,30.12,North,359,0.0,3.7,93,0.00,,SKC,0.00,VWS V14.01,2013-06-25 03:30:00,
2013-06-24 23:31:00,79.4,77.2,30.12,North,359,0.0,3.7,93,0.00,,SKC,0.00,VWS V14.01,2013-06-25 03:31:00,
2013-06-24 23:33:00,79.4,77.2,30.12,North,359,0.0,3.7,93,0.00,,SKC,0.00,VWS V14.01,2013-06-25 03:33:00,
2013-06-24 23:35:00,79.3,77.1,30.12,North,359,0.0,3.7,93,0.00,,SKC,0.00,VWS V14.01,2013-06-25 03:35:00,
2013-06-24 23:38:00,79.4,77.3,30.12,North,359,0.0,3.7,93,0.00,,SKC,0.00,VWS V14.01,2013-06-25 03:38:00,
2013-06-24 23:39:00,79.4,77.2,30.12,North,359,0.0,3.7,93,0.00,,SKC,0.00,VWS V14.01,2013-06-25 03:39:00,
2013-06-24 23:41:00,79.4,77.3,30.12,North,359,0.0,3.7,93,0.00,,SKC,0.00,VWS V14.01,2013-06-25 03:41:00,
2013-06-24 23:43:00,79.4,77.3,30.12,North,359,0.0,3.7,93,0.00,,SKC,0.00,VWS V14.01,2013-06-25 03:43:00,
2013-06-24 23:44:00,79.4,77.3,30.12,North,359,0.0,3.7,93,0.00,,SKC,0.00,VWS V14.01,2013-06-25 03:44:00,
2013-06-24 23:47:00,79.3,77.2,30.12,North,359,0.0,3.7,93,0.00,,SKC,0.00,VWS V14.01,2013-06-25 03:47:00,
2013-06-24 23:48:00,79.3,77.3,30.12,North,359,0.0,3.7,94,0.00,,SKC,0.00,VWS V14.01,2013-06-25 03:48:00,
2013-06-24 23:50:00,79.2,77.2,30.12,North,359,0.0,3.7,94,0.00,,SKC,0.00,VWS V14.01,2013-06-25 03:50:00,
2013-06-24 23:52:00,79.1,77.0,30.12,North,359,0.0,3.7,93,0.00,,SKC,0.00,VWS V14.01,2013-06-25 03:52:00,
2013-06-24 23:54:00,79.1,77.0,30.12,North,359,0.0,3.7,93,0.00,,SKC,0.00,VWS V14.01,2013-06-25 03:54:00,
2013-06-24 23:57:00,79.1,76.9,30.12,North,359,0.0,3.7,93,0.00,,SKC,0.00,VWS V14.01,2013-06-25 03:57:00,
2013-06-24 23:59:00,79.1,77.4,30.12,North,359,0.0,3.7,94,0.00,,SKC,0.00,VWS V14.01,2013-06-25 03:59:00,